Time,TemperatureF,DewpointF,PressureIn,WindDirection,WindDirectionDegrees,WindSpeedMPH,WindSpeedGustMPH,Humidity,HourlyPrecipIn,Conditions,Clouds,dailyrainin,SoftwareType,DateUTC
2013-03-21 00:00:00,64.0,53.7,29.79,WNW,292,0.0,0.0,69,0.00,,---,0.00,VWS V14.01,2013-03-20 22:00:00,
2013-03-21 00:01:00,64.0,53.7,29.79,WNW,292,0.0,0.0,69,0.00,,---,0.00,VWS V14.01,2013-03-20 22:01:00,
2013-03-21 00:05:00,64.0,53.7,29.79,WNW,292,0.0,0.0,69,0.00,,---,0.00,VWS V14.01,2013-03-20 22:05:00,
2013-03-21 00:07:00,64.0,53.7,29.79,WNW,292,0.0,0.0,69,0.00,,---,0.00,VWS V14.01,2013-03-20 22:07:00,
2013-03-21 00:10:00,64.2,53.8,29.79,WNW,292,0.0,0.0,69,0.00,,---,0.00,VWS V14.01,2013-03-20 22:10:00,
2013-03-21 00:11:00,64.2,53.8,29.79,WNW,292,0.0,0.0,69,0.00,,---,0.00,VWS V14.01,2013-03-20 22:11:00,
2013-03-21 00:12:00,64.2,53.5,29.79,WNW,292,0.0,0.0,68,0.00,,---,0.00,VWS V14.01,2013-03-20 22:12:00,
2013-03-21 00:14:00,64.2,53.5,29.79,WNW,292,0.0,0.0,68,0.00,,---,0.00,VWS V14.01,2013-03-20 22:14:00,
2013-03-21 00:18:00,64.2,53.5,29.79,WNW,292,0.0,0.0,68,0.00,,---,0.00,VWS V14.01,2013-03-20 22:18:00,
2013-03-21 00:19:00,64.2,53.5,29.79,WNW,292,0.0,0.0,68,0.00,,---,0.00,VWS V14.01,2013-03-20 22:19:00,
2013-03-21 00:20:00,64.2,53.5,29.79,WNW,292,0.0,0.0,68,0.00,,---,0.00,VWS V14.01,2013-03-20 22:20:00,
2013-03-21 00:24:00,64.2,53.5,29.79,WNW,292,0.0,0.0,68,0.00,,---,0.00,VWS V14.01,2013-03-20 22:24:00,
2013-03-21 00:25:00,64.2,53.5,29.79,WNW,292,0.0,0.0,68,0.00,,---,0.00,VWS V14.01,2013-03-20 22:25:00,
2013-03-21 00:26:00,64.2,53.5,29.79,WNW,292,0.0,0.0,68,0.00,,---,0.00,VWS V14.01,2013-03-20 22:26:00,
2013-03-21 00:29:00,64.2,53.5,29.79,WNW,292,0.0,0.0,68,0.00,,---,0.00,VWS V14.01,2013-03-20 22:29:00,
2013-03-21 00:30:00,64.2,53.5,29.79,WNW,292,0.0,0.0,68,0.00,,---,0.00,VWS V14.01,2013-03-20 22:30:00,
2013-03-21 00:33:00,64.2,53.5,29.79,WNW,292,0.0,0.0,68,0.00,,---,0.00,VWS V14.01,2013-03-20 22:33:00,
2013-03-21 00:34:00,64.2,53.5,29.79,WNW,292,0.0,0.0,68,0.00,,---,0.00,VWS V14.01,2013-03-20 22:34:00,
2013-03-21 00:35:00,64.2,53.5,29.79,WNW,292,0.0,0.0,68,0.00,,---,0.00,VWS V14.01,2013-03-20 22:35:00,
2013-03-21 00:39:00,64.2,53.5,29.79,WNW,292,0.0,0.0,68,0.00,,---,0.00,VWS V14.01,2013-03-20 22:39:00,
2013-03-21 00:40:00,64.2,53.5,29.79,WNW,292,0.0,0.0,68,0.00,,---,0.00,VWS V14.01,2013-03-20 22:40:00,
2013-03-21 00:41:00,64.2,53.5,29.79,NW,315,0.0,0.0,68,0.00,,---,0.00,VWS V14.01,2013-03-20 22:41:00,
2013-03-21 00:43:00,64.6,48.5,29.79,NW,315,0.0,0.0,56,0.00,,---,0.00,VWS V14.01,2013-03-20 22:43:00,
2013-03-21 00:46:00,64.6,47.6,29.79,NW,315,0.0,0.0,54,0.00,,---,0.00,VWS V14.01,2013-03-20 22:46:00,
2013-03-21 00:47:00,64.8,48.2,29.79,NW,315,0.0,0.0,55,0.00,,---,0.00,VWS V14.01,2013-03-20 22:47:00,
2013-03-21 00:51:00,64.8,47.8,29.79,NW,315,0.0,0.0,54,0.00,,---,0.00,VWS V14.01,2013-03-20 22:51:00,
2013-03-21 00:53:00,64.8,47.8,29.79,NW,315,0.0,0.0,54,0.00,,---,0.00,VWS V14.01,2013-03-20 22:53:00,
2013-03-21 00:55:00,64.8,47.8,29.79,NW,315,0.0,0.0,54,0.00,,---,0.00,VWS V14.01,2013-03-20 22:55:00,
2013-03-21 00:57:00,64.8,47.2,29.79,NW,315,0.0,0.0,53,0.00,,---,0.00,VWS V14.01,2013-03-20 22:57:00,
2013-03-21 00:59:00,64.9,46.9,29.79,NW,315,0.0,0.0,52,0.00,,---,0.00,VWS V14.01,2013-03-20 22:59:00,
2013-03-21 01:01:00,64.9,46.4,29.79,NW,315,0.0,0.0,51,0.00,,---,0.00,VWS V14.01,2013-03-20 23:01:00,
2013-03-21 01:03:00,64.9,45.9,29.79,NW,315,0.0,0.0,50,0.00,,---,0.00,VWS V14.01,2013-03-20 23:03:00,
2013-03-21 01:07:00,65.1,46.0,29.79,NW,315,0.0,0.0,50,0.00,,---,0.00,VWS V14.01,2013-03-20 23:07:00,
2013-03-21 01:11:00,65.3,46.2,29.79,NW,315,0.0,0.0,50,0.00,,---,0.00,VWS V14.01,2013-03-20 23:11:00,
2013-03-21 01:12:00,65.3,46.2,29.79,NW,315,0.0,0.0,50,0.00,,---,0.00,VWS V14.01,2013-03-20 23:12:00,
2013-03-21 01:13:00,65.5,46.4,29.79,NW,315,0.0,0.0,50,0.00,,---,0.00,VWS V14.01,2013-03-20 23:13:00,
2013-03-21 01:18:00,65.7,44.9,29.79,NW,315,0.0,0.0,47,0.00,,---,0.00,VWS V14.01,2013-03-20 23:18:00,
2013-03-21 01:19:00,65.7,44.3,29.79,NW,315,0.0,0.0,46,0.00,,---,0.00,VWS V14.01,2013-03-20 23:19:00,
2013-03-21 01:22:00,65.7,42.6,29.79,NNW,338,0.0,0.0,43,0.00,,---,0.00,VWS V14.01,2013-03-20 23:22:00,
2013-03-21 01:24:00,65.8,42.1,29.79,NNW,338,0.0,0.0,42,0.00,,---,0.00,VWS V14.01,2013-03-20 23:24:00,
2013-03-21 01:26:00,65.8,41.5,29.79,NNW,338,0.0,0.0,41,0.00,,---,0.00,VWS V14.01,2013-03-20 23:26:00,
2013-03-21 01:28:00,65.8,41.5,29.79,NNW,338,0.0,0.0,41,0.00,,---,0.00,VWS V14.01,2013-03-20 23:28:00,
2013-03-21 01:29:00,65.8,42.7,29.79,NNW,338,0.0,0.0,43,0.00,,---,0.00,VWS V14.01,2013-03-20 23:29:00,
2013-03-21 01:32:00,65.7,42.6,29.79,NW,315,0.0,0.0,43,0.00,,---,0.00,VWS V14.01,2013-03-20 23:32:00,
2013-03-21 01:34:00,65.7,43.2,29.79,NW,315,0.0,0.0,44,0.00,,---,0.00,VWS V14.01,2013-03-20 23:34:00,
2013-03-21 01:37:00,65.5,42.4,29.79,NW,315,0.0,0.0,43,0.00,,---,0.00,VWS V14.01,2013-03-20 23:37:00,
2013-03-21 01:38:00,65.5,42.4,29.79,NW,315,0.0,0.0,43,0.00,,---,0.00,VWS V14.01,2013-03-20 23:38:00,
2013-03-21 01:43:00,65.5,42.4,29.76,NW,315,0.0,0.0,43,0.00,,---,0.00,VWS V14.01,2013-03-20 23:43:00,
2013-03-21 01:44:00,65.7,42.6,29.76,NW,315,0.0,0.0,43,0.00,,---,0.00,VWS V14.01,2013-03-20 23:44:00,
2013-03-21 01:46:00,65.7,42.6,29.76,NW,315,0.0,0.0,43,0.00,,---,0.00,VWS V14.01,2013-03-20 23:46:00,
2013-03-21 01:49:00,65.7,40.7,29.76,WSW,248,0.0,0.0,40,0.00,,---,0.00,VWS V14.01,2013-03-20 23:49:00,
2013-03-21 01:50:00,65.7,40.7,29.76,WSW,248,0.0,0.0,40,0.00,,---,0.00,VWS V14.01,2013-03-20 23:50:00,
2013-03-21 01:52:00,65.3,39.7,29.76,WSW,248,0.0,0.0,39,0.00,,---,0.00,VWS V14.01,2013-03-20 23:52:00,
2013-03-21 01:54:00,65.1,42.1,29.76,WSW,248,0.0,0.0,43,0.00,,---,0.00,VWS V14.01,2013-03-20 23:54:00,
2013-03-21 01:55:00,65.3,43.4,29.76,West,270,0.0,0.0,45,0.00,,---,0.00,VWS V14.01,2013-03-20 23:55:00,
2013-03-21 01:56:00,65.3,44.0,29.76,WSW,248,0.0,0.0,46,0.00,,---,0.00,VWS V14.01,2013-03-20 23:56:00,
2013-03-21 01:58:00,65.1,45.0,29.76,WSW,248,0.0,0.0,48,0.00,,---,0.00,VWS V14.01,2013-03-20 23:58:00,
2013-03-21 01:59:00,64.9,44.8,29.76,WSW,248,0.0,0.0,48,0.00,,---,0.00,VWS V14.01,2013-03-20 23:59:00,
2013-03-21 02:03:00,64.8,45.2,29.76,West,270,0.0,0.0,49,0.00,,---,0.00,VWS V14.01,2013-03-21 00:03:00,
2013-03-21 02:04:00,64.8,45.2,29.76,West,270,0.0,0.0,49,0.00,,---,0.00,VWS V14.01,2013-03-21 00:04:00,
2013-03-21 02:05:00,64.8,45.2,29.76,WNW,292,0.0,0.0,49,0.00,,---,0.00,VWS V14.01,2013-03-21 00:05:00,
2013-03-21 02:08:00,64.8,45.7,29.76,West,270,0.0,0.0,50,0.00,,---,0.00,VWS V14.01,2013-03-21 00:08:00,
2013-03-21 02:11:00,64.4,44.8,29.76,West,270,0.0,0.0,49,0.00,,---,0.00,VWS V14.01,2013-03-21 00:11:00,
2013-03-21 02:12:00,64.4,44.8,29.76,West,270,0.0,0.0,49,0.00,,---,0.00,VWS V14.01,2013-03-21 00:12:00,
2013-03-21 02:13:00,64.4,44.8,29.76,West,270,0.0,0.0,49,0.00,,---,0.00,VWS V14.01,2013-03-21 00:13:00,
2013-03-21 02:16:00,64.2,44.7,29.76,West,270,0.0,0.0,49,0.00,,---,0.00,VWS V14.01,2013-03-21 00:16:00,
2013-03-21 02:19:00,64.4,44.8,29.76,West,270,0.0,0.0,49,0.00,,---,0.00,VWS V14.01,2013-03-21 00:19:00,
2013-03-21 02:20:00,64.4,44.8,29.76,West,270,0.0,0.0,49,0.00,,---,0.00,VWS V14.01,2013-03-21 00:20:00,
2013-03-21 02:22:00,64.9,45.3,29.76,West,270,0.0,0.0,49,0.00,,---,0.00,VWS V14.01,2013-03-21 00:22:00,
2013-03-21 02:24:00,65.3,45.7,29.76,North,0,0.0,0.0,49,0.00,,---,0.00,VWS V14.01,2013-03-21 00:24:00,
2013-03-21 02:25:00,65.5,45.8,29.76,North,0,0.0,0.0,49,0.00,,---,0.00,VWS V14.01,2013-03-21 00:25:00,
2013-03-21 02:27:00,65.7,45.5,29.76,NNE,22,0.0,0.0,48,0.00,,---,0.00,VWS V14.01,2013-03-21 00:27:00,
2013-03-21 02:29:00,65.8,44.5,29.76,NNE,22,0.0,0.0,46,0.00,,---,0.00,VWS V14.01,2013-03-21 00:29:00,
2013-03-21 02:31:00,65.8,43.3,29.76,NNE,22,0.0,0.0,44,0.00,,---,0.00,VWS V14.01,2013-03-21 00:31:00,
2013-03-21 02:33:00,66.0,42.9,29.76,NNE,22,0.0,0.0,43,0.00,,---,0.00,VWS V14.01,2013-03-21 00:33:00,
2013-03-21 02:37:00,66.2,41.8,29.76,NNW,338,0.0,0.0,41,0.00,,---,0.00,VWS V14.01,2013-03-21 00:37:00,
2013-03-21 02:38:00,66.4,42.0,29.76,NNW,338,0.0,0.0,41,0.00,,---,0.00,VWS V14.01,2013-03-21 00:38:00,
2013-03-21 02:42:00,66.2,41.2,29.76,West,270,0.0,0.0,40,0.00,,---,0.00,VWS V14.01,2013-03-21 00:42:00,
2013-03-21 02:43:00,66.2,41.2,29.76,West,270,0.0,0.0,40,0.00,,---,0.00,VWS V14.01,2013-03-21 00:43:00,
2013-03-21 02:44:00,66.0,41.0,29.76,West,270,0.0,0.0,40,0.00,,---,0.00,VWS V14.01,2013-03-21 00:44:00,
2013-03-21 02:47:00,65.7,40.7,29.76,West,270,0.0,0.0,40,0.00,,---,0.00,VWS V14.01,2013-03-21 00:47:00,
2013-03-21 02:48:00,65.5,40.5,29.76,West,270,0.0,0.0,40,0.00,,---,0.00,VWS V14.01,2013-03-21 00:48:00,
2013-03-21 02:51:00,65.1,40.2,29.76,West,270,0.0,0.0,40,0.00,,---,0.00,VWS V14.01,2013-03-21 00:51:00,
2013-03-21 02:53:00,65.1,40.9,29.76,West,270,0.0,0.0,41,0.00,,---,0.00,VWS V14.01,2013-03-21 00:53:00,
2013-03-21 02:55:00,65.1,40.9,29.76,West,270,0.0,0.0,41,0.00,,---,0.00,VWS V14.01,2013-03-21 00:55:00,
2013-03-21 02:56:00,65.1,40.9,29.76,West,270,0.0,0.0,41,0.00,,---,0.00,VWS V14.01,2013-03-21 00:56:00,
2013-03-21 02:59:00,64.8,39.9,29.76,West,270,0.0,0.0,40,0.00,,---,0.00,VWS V14.01,2013-03-21 00:59:00,
2013-03-21 03:01:00,64.8,39.2,29.76,West,270,0.0,0.0,39,0.00,,---,0.00,VWS V14.01,2013-03-21 01:01:00,
2013-03-21 03:03:00,64.9,40.7,29.76,WSW,248,0.0,0.0,41,0.00,,---,0.00,VWS V14.01,2013-03-21 01:03:00,
2013-03-21 03:04:00,64.9,41.3,29.76,WSW,248,0.0,0.0,42,0.00,,---,0.00,VWS V14.01,2013-03-21 01:04:00,
2013-03-21 03:06:00,65.1,42.7,29.76,WSW,248,0.0,0.0,44,0.00,,---,0.00,VWS V14.01,2013-03-21 01:06:00,
2013-03-21 03:11:00,65.1,46.0,29.76,WSW,248,0.0,0.0,50,0.00,,---,0.00,VWS V14.01,2013-03-21 01:11:00,
2013-03-21 03:12:00,65.1,47.1,29.76,WSW,248,0.0,0.0,52,0.00,,---,0.00,VWS V14.01,2013-03-21 01:12:00,
2013-03-21 03:13:00,65.1,47.6,29.76,WSW,248,0.0,0.0,53,0.00,,---,0.00,VWS V14.01,2013-03-21 01:13:00,
2013-03-21 03:16:00,64.8,49.7,29.76,WSW,248,0.0,0.0,58,0.00,,---,0.00,VWS V14.01,2013-03-21 01:16:00,
2013-03-21 03:17:00,64.8,50.6,29.76,WSW,248,0.0,0.0,60,0.00,,---,0.00,VWS V14.01,2013-03-21 01:17:00,
2013-03-21 03:18:00,64.8,51.9,29.76,SW,225,0.0,0.0,63,0.00,,---,0.00,VWS V14.01,2013-03-21 01:18:00,
2013-03-21 03:21:00,64.6,53.8,29.76,WSW,248,0.0,0.0,68,0.00,,---,0.00,VWS V14.01,2013-03-21 01:21:00,
2013-03-21 03:22:00,64.4,54.0,29.76,WSW,248,0.0,0.0,69,0.00,,---,0.00,VWS V14.01,2013-03-21 01:22:00,
2013-03-21 03:23:00,64.4,55.2,29.76,WSW,248,0.0,0.0,72,0.00,,---,0.00,VWS V14.01,2013-03-21 01:23:00,
2013-03-21 03:25:00,64.2,55.8,29.76,SW,225,0.0,0.0,74,0.00,,---,0.00,VWS V14.01,2013-03-21 01:25:00,
2013-03-21 03:26:00,64.2,56.1,29.76,WSW,248,0.0,0.0,75,0.00,,---,0.00,VWS V14.01,2013-03-21 01:26:00,
2013-03-21 03:29:00,64.0,57.4,29.76,WSW,248,0.0,0.0,79,0.00,,---,0.00,VWS V14.01,2013-03-21 01:29:00,
2013-03-21 03:30:00,63.9,57.9,29.76,WSW,248,0.0,0.0,81,0.00,,---,0.00,VWS V14.01,2013-03-21 01:30:00,
2013-03-21 03:33:00,63.9,58.6,29.76,SW,225,0.0,0.0,83,0.00,,---,0.00,VWS V14.01,2013-03-21 01:33:00,
2013-03-21 03:36:00,63.7,58.1,29.76,WSW,248,0.0,0.0,82,0.00,,---,0.00,VWS V14.01,2013-03-21 01:36:00,
2013-03-21 03:38:00,64.2,60.3,29.76,West,270,0.0,0.0,87,0.00,,---,0.00,VWS V14.01,2013-03-21 01:38:00,
2013-03-21 03:39:00,64.4,60.8,29.76,WSW,248,0.0,0.0,88,0.00,,---,0.00,VWS V14.01,2013-03-21 01:39:00,
2013-03-21 03:40:00,64.4,61.1,29.76,WSW,248,0.0,0.0,89,0.00,,---,0.00,VWS V14.01,2013-03-21 01:40:00,
2013-03-21 03:41:00,64.4,61.4,29.76,WSW,248,0.0,0.0,90,0.00,,---,0.00,VWS V14.01,2013-03-21 01:41:00,
2013-03-21 03:45:00,64.6,61.9,29.76,WSW,248,0.0,0.0,91,0.00,,---,0.00,VWS V14.01,2013-03-21 01:45:00,
2013-03-21 03:47:00,64.6,62.2,29.76,WSW,248,0.0,0.0,92,0.00,,---,0.00,VWS V14.01,2013-03-21 01:47:00,
2013-03-21 03:48:00,64.6,62.2,29.76,WSW,248,0.0,0.0,92,0.00,,---,0.00,VWS V14.01,2013-03-21 01:48:00,
2013-03-21 03:52:00,64.8,63.0,29.76,WSW,248,0.0,0.0,94,0.00,,---,0.00,VWS V14.01,2013-03-21 01:52:00,
2013-03-21 03:54:00,64.6,62.8,29.76,West,270,0.0,0.0,94,0.00,,---,0.00,VWS V14.01,2013-03-21 01:54:00,
2013-03-21 03:55:00,64.8,63.0,29.76,WSW,248,0.0,0.0,94,0.00,,---,0.00,VWS V14.01,2013-03-21 01:55:00,
2013-03-21 03:57:00,64.8,63.0,29.74,WSW,248,0.0,0.0,94,0.00,,---,0.00,VWS V14.01,2013-03-21 01:57:00,
2013-03-21 03:59:00,64.8,63.0,29.74,West,270,0.0,0.0,94,0.00,,---,0.00,VWS V14.01,2013-03-21 01:59:00,
2013-03-21 04:02:00,64.6,62.5,29.74,West,270,0.0,0.0,93,0.00,,---,0.00,VWS V14.01,2013-03-21 02:02:00,
2013-03-21 04:03:00,64.4,62.3,29.74,WSW,248,0.0,0.0,93,0.00,,---,0.00,VWS V14.01,2013-03-21 02:03:00,
2013-03-21 04:05:00,64.4,62.3,29.74,WNW,292,0.0,0.0,93,0.00,,---,0.00,VWS V14.01,2013-03-21 02:05:00,
2013-03-21 04:08:00,64.2,61.8,29.74,West,270,0.0,0.0,92,0.00,,---,0.00,VWS V14.01,2013-03-21 02:08:00,
2013-03-21 04:10:00,64.6,62.2,29.74,West,270,0.0,0.0,92,0.00,,---,0.00,VWS V14.01,2013-03-21 02:10:00,
2013-03-21 04:14:00,64.8,62.7,29.74,WSW,248,0.0,0.0,93,0.00,,---,0.00,VWS V14.01,2013-03-21 02:14:00,
2013-03-21 04:16:00,64.8,62.7,29.74,WNW,292,0.0,0.0,93,0.00,,---,0.00,VWS V14.01,2013-03-21 02:16:00,
2013-03-21 04:18:00,65.1,63.7,29.74,WSW,248,0.0,0.0,95,0.00,,---,0.00,VWS V14.01,2013-03-21 02:18:00,
2013-03-21 04:22:00,65.1,63.7,29.74,WSW,248,0.0,0.0,95,0.00,,---,0.00,VWS V14.01,2013-03-21 02:22:00,
2013-03-21 04:25:00,65.3,64.1,29.74,WSW,248,0.0,0.0,96,0.00,,---,0.00,VWS V14.01,2013-03-21 02:25:00,
2013-03-21 04:27:00,65.3,64.1,29.74,WSW,248,0.0,0.0,96,0.00,,---,0.00,VWS V14.01,2013-03-21 02:27:00,
2013-03-21 04:28:00,65.1,64.0,29.74,WNW,292,0.0,0.0,96,0.00,,---,0.00,VWS V14.01,2013-03-21 02:28:00,
2013-03-21 04:29:00,65.1,64.0,29.74,WSW,248,0.0,0.0,96,0.00,,---,0.00,VWS V14.01,2013-03-21 02:29:00,
2013-03-21 04:31:00,65.1,64.2,29.74,WNW,292,0.0,0.0,97,0.00,,---,0.00,VWS V14.01,2013-03-21 02:31:00,
2013-03-21 04:34:00,65.1,64.2,29.74,WSW,248,0.0,0.0,97,0.00,,---,0.00,VWS V14.01,2013-03-21 02:34:00,
2013-03-21 04:35:00,65.1,64.2,29.74,WSW,248,0.0,0.0,97,0.00,,---,0.00,VWS V14.01,2013-03-21 02:35:00,
2013-03-21 04:38:00,65.1,64.2,29.74,SSW,202,0.0,0.0,97,0.00,,---,0.00,VWS V14.01,2013-03-21 02:38:00,
2013-03-21 04:40:00,65.3,64.7,29.74,WSW,248,0.0,0.0,98,0.00,,---,0.00,VWS V14.01,2013-03-21 02:40:00,
2013-03-21 04:42:00,65.3,64.7,29.74,WSW,248,0.0,0.0,98,0.00,,---,0.00,VWS V14.01,2013-03-21 02:42:00,
2013-03-21 04:45:00,65.5,64.9,29.74,WSW,248,0.0,0.0,98,0.00,,---,0.00,VWS V14.01,2013-03-21 02:45:00,
2013-03-21 04:46:00,65.5,64.9,29.74,WSW,248,0.0,0.0,98,0.00,,---,0.00,VWS V14.01,2013-03-21 02:46:00,
2013-03-21 04:51:00,65.5,64.9,29.74,WSW,248,0.0,0.0,98,0.00,,---,0.00,VWS V14.01,2013-03-21 02:51:00,
2013-03-21 04:53:00,65.5,64.9,29.74,WSW,248,0.0,0.0,98,0.00,,---,0.00,VWS V14.01,2013-03-21 02:53:00,
2013-03-21 04:56:00,65.5,64.9,29.76,WSW,248,0.0,0.0,98,0.00,,---,0.00,VWS V14.01,2013-03-21 02:56:00,
2013-03-21 04:58:00,65.5,64.9,29.76,WSW,248,0.0,0.0,98,0.00,,---,0.00,VWS V14.01,2013-03-21 02:58:00,
2013-03-21 05:02:00,65.5,64.9,29.76,WSW,248,0.0,0.0,98,0.00,,---,0.00,VWS V14.01,2013-03-21 03:02:00,
2013-03-21 05:03:00,65.3,64.7,29.76,WSW,248,0.0,0.0,98,0.00,,---,0.00,VWS V14.01,2013-03-21 03:03:00,
2013-03-21 05:04:00,65.3,64.7,29.76,WSW,248,0.0,0.0,98,0.00,,---,0.00,VWS V14.01,2013-03-21 03:04:00,
2013-03-21 05:07:00,65.3,64.7,29.76,WSW,248,0.0,0.0,98,0.00,,---,0.00,VWS V14.01,2013-03-21 03:07:00,
2013-03-21 05:08:00,65.3,64.7,29.76,West,270,0.0,0.0,98,0.00,,---,0.00,VWS V14.01,2013-03-21 03:08:00,
2013-03-21 05:09:00,65.5,64.9,29.76,WSW,248,0.0,0.0,98,0.00,,---,0.00,VWS V14.01,2013-03-21 03:09:00,
2013-03-21 05:14:00,65.7,65.1,29.74,WSW,248,0.0,0.0,98,0.00,,---,0.00,VWS V14.01,2013-03-21 03:14:00,
2013-03-21 05:15:00,65.8,65.3,29.74,WSW,248,0.0,0.0,98,0.00,,---,0.00,VWS V14.01,2013-03-21 03:15:00,
2013-03-21 05:20:00,65.7,65.1,29.74,WSW,248,0.0,0.0,98,0.00,,---,0.00,VWS V14.01,2013-03-21 03:20:00,
2013-03-21 05:22:00,65.8,65.3,29.74,WSW,248,0.0,0.0,98,0.00,,---,0.00,VWS V14.01,2013-03-21 03:22:00,
2013-03-21 05:23:00,65.8,65.3,29.74,WSW,248,0.0,0.0,98,0.00,,---,0.00,VWS V14.01,2013-03-21 03:23:00,
2013-03-21 05:24:00,65.8,65.3,29.74,WSW,248,0.0,0.0,98,0.00,,---,0.00,VWS V14.01,2013-03-21 03:24:00,
2013-03-21 05:26:00,65.8,65.3,29.74,WSW,248,0.0,0.0,98,0.00,,---,0.00,VWS V14.01,2013-03-21 03:26:00,
2013-03-21 05:28:00,65.8,65.3,29.74,WSW,248,0.0,0.0,98,0.00,,---,0.00,VWS V14.01,2013-03-21 03:28:00,
2013-03-21 05:29:00,65.8,65.3,29.74,WSW,248,0.0,0.0,98,0.00,,---,0.00,VWS V14.01,2013-03-21 03:29:00,
2013-03-21 05:31:00,65.8,65.3,29.74,WSW,248,0.0,0.0,98,0.00,,---,0.00,VWS V14.01,2013-03-21 03:31:00,
2013-03-21 05:35:00,65.8,65.3,29.74,WSW,248,0.0,0.0,98,0.00,,---,0.00,VWS V14.01,2013-03-21 03:35:00,
2013-03-21 05:37:00,65.8,65.3,29.74,WSW,248,0.0,0.0,98,0.00,,---,0.00,VWS V14.01,2013-03-21 03:37:00,
2013-03-21 05:42:00,65.8,65.3,29.74,WSW,248,0.0,0.0,98,0.00,,---,0.00,VWS V14.01,2013-03-21 03:42:00,
2013-03-21 05:43:00,65.8,65.3,29.74,WSW,248,0.0,0.0,98,0.00,,---,0.00,VWS V14.01,2013-03-21 03:43:00,
2013-03-21 05:45:00,65.7,65.1,29.74,WSW,248,0.0,0.0,98,0.00,,---,0.00,VWS V14.01,2013-03-21 03:45:00,
2013-03-21 05:47:00,65.8,65.3,29.74,WSW,248,0.0,0.0,98,0.00,,---,0.00,VWS V14.01,2013-03-21 03:47:00,
2013-03-21 05:48:00,65.8,65.3,29.74,WSW,248,0.0,0.0,98,0.00,,---,0.00,VWS V14.01,2013-03-21 03:48:00,
2013-03-21 05:51:00,65.8,65.3,29.74,WSW,248,0.0,0.0,98,0.00,,---,0.00,VWS V14.01,2013-03-21 03:51:00,
2013-03-21 05:52:00,65.8,65.3,29.74,WSW,248,0.0,0.0,98,0.00,,---,0.00,VWS V14.01,2013-03-21 03:52:00,
2013-03-21 05:54:00,65.8,65.3,29.74,WSW,248,0.0,0.0,98,0.00,,---,0.00,VWS V14.01,2013-03-21 03:54:00,
2013-03-21 05:57:00,65.7,65.1,29.76,WSW,248,0.0,0.0,98,0.00,,---,0.00,VWS V14.01,2013-03-21 03:57:00,
2013-03-21 06:00:00,65.7,65.1,29.76,WSW,248,0.0,0.0,98,0.00,,---,0.00,VWS V14.01,2013-03-21 04:00:00,
2013-03-21 06:01:00,65.7,65.1,29.76,WSW,248,0.0,0.0,98,0.00,,---,0.00,VWS V14.01,2013-03-21 04:01:00,
2013-03-21 06:02:00,65.7,65.1,29.76,WSW,248,0.0,0.0,98,0.00,,---,0.00,VWS V14.01,2013-03-21 04:02:00,
2013-03-21 06:03:00,65.7,65.1,29.76,WSW,248,0.0,0.0,98,0.00,,---,0.00,VWS V14.01,2013-03-21 04:03:00,
2013-03-21 06:07:00,65.7,65.1,29.76,WSW,248,0.0,0.0,98,0.00,,---,0.00,VWS V14.01,2013-03-21 04:07:00,
2013-03-21 06:09:00,65.7,65.1,29.76,WSW,248,0.0,0.0,98,0.00,,---,0.00,VWS V14.01,2013-03-21 04:09:00,
2013-03-21 06:12:00,65.8,65.3,29.76,WSW,248,0.0,0.0,98,0.00,,---,0.00,VWS V14.01,2013-03-21 04:12:00,
2013-03-21 06:14:00,65.8,65.3,29.76,WSW,248,0.0,0.0,98,0.00,,---,0.00,VWS V14.01,2013-03-21 04:14:00,
2013-03-21 06:16:00,65.8,65.3,29.76,WSW,248,0.0,0.0,98,0.00,,---,0.00,VWS V14.01,2013-03-21 04:16:00,
2013-03-21 06:19:00,66.0,65.4,29.76,WSW,248,0.0,0.0,98,0.00,,---,0.00,VWS V14.01,2013-03-21 04:19:00,
2013-03-21 06:20:00,66.0,65.4,29.76,WSW,248,0.0,0.0,98,0.00,,---,0.00,VWS V14.01,2013-03-21 04:20:00,
2013-03-21 06:24:00,66.0,65.4,29.76,WSW,248,0.0,0.0,98,0.00,,---,0.00,VWS V14.01,2013-03-21 04:24:00,
2013-03-21 06:25:00,66.0,65.4,29.76,WSW,248,0.0,0.0,98,0.00,,---,0.00,VWS V14.01,2013-03-21 04:25:00,
2013-03-21 06:26:00,66.0,65.4,29.76,WSW,248,0.0,0.0,98,0.00,,---,0.00,VWS V14.01,2013-03-21 04:26:00,
2013-03-21 06:27:00,66.0,65.4,29.76,WSW,248,0.0,0.0,98,0.00,,---,0.00,VWS V14.01,2013-03-21 04:27:00,
2013-03-21 06:30:00,66.0,65.4,29.76,WSW,248,0.0,0.0,98,0.00,,---,0.00,VWS V14.01,2013-03-21 04:30:00,
2013-03-21 06:32:00,65.8,65.3,29.76,West,270,0.0,0.0,98,0.00,,---,0.00,VWS V14.01,2013-03-21 04:32:00,
2013-03-21 06:34:00,66.0,65.4,29.76,WSW,248,0.0,0.0,98,0.00,,---,0.00,VWS V14.01,2013-03-21 04:34:00,
2013-03-21 06:35:00,66.0,65.4,29.76,WSW,248,0.0,0.0,98,0.00,,---,0.00,VWS V14.01,2013-03-21 04:35:00,
2013-03-21 06:37:00,66.0,65.4,29.76,WSW,248,0.0,0.0,98,0.00,,---,0.00,VWS V14.01,2013-03-21 04:37:00,
2013-03-21 06:38:00,66.0,65.4,29.76,WNW,292,0.0,0.0,98,0.00,,---,0.00,VWS V14.01,2013-03-21 04:38:00,
2013-03-21 06:40:00,66.0,65.4,29.76,WSW,248,0.0,0.0,98,0.00,,---,0.00,VWS V14.01,2013-03-21 04:40:00,
2013-03-21 06:45:00,66.7,66.2,29.76,West,270,0.0,0.0,98,0.00,,---,0.00,VWS V14.01,2013-03-21 04:45:00,
2013-03-21 06:46:00,66.7,66.2,29.76,WSW,248,0.0,0.0,98,0.00,,---,0.00,VWS V14.01,2013-03-21 04:46:00,
2013-03-21 06:49:00,66.9,66.3,29.76,WSW,248,0.0,0.0,98,0.00,,---,0.00,VWS V14.01,2013-03-21 04:49:00,
2013-03-21 06:51:00,67.1,66.5,29.76,WSW,248,0.0,0.0,98,0.00,,---,0.00,VWS V14.01,2013-03-21 04:51:00,
2013-03-21 06:54:00,67.1,66.5,29.76,WSW,248,0.0,0.0,98,0.00,,---,0.00,VWS V14.01,2013-03-21 04:54:00,
2013-03-21 06:55:00,67.1,66.5,29.76,West,270,0.0,0.0,98,0.00,,---,0.00,VWS V14.01,2013-03-21 04:55:00,
2013-03-21 06:57:00,66.9,66.3,29.76,West,270,0.0,0.0,98,0.00,,---,0.00,VWS V14.01,2013-03-21 04:57:00,
2013-03-21 07:00:00,66.9,66.3,29.76,WSW,248,0.0,0.0,98,0.00,,---,0.00,VWS V14.01,2013-03-21 05:00:00,
2013-03-21 07:02:00,66.9,66.3,29.76,West,270,0.0,0.0,98,0.00,,---,0.00,VWS V14.01,2013-03-21 05:02:00,
2013-03-21 07:05:00,67.1,66.5,29.76,WSW,248,0.0,0.0,98,0.00,,---,0.00,VWS V14.01,2013-03-21 05:05:00,
2013-03-21 07:06:00,67.3,66.7,29.76,West,270,0.0,0.0,98,0.00,,---,0.00,VWS V14.01,2013-03-21 05:06:00,
2013-03-21 07:09:00,67.6,67.1,29.76,WNW,292,0.0,0.0,98,0.00,,---,0.00,VWS V14.01,2013-03-21 05:09:00,
2013-03-21 07:11:00,67.6,67.1,29.76,WSW,248,0.0,0.0,98,0.00,,---,0.00,VWS V14.01,2013-03-21 05:11:00,
2013-03-21 07:12:00,67.8,67.2,29.76,WNW,292,0.0,0.0,98,0.00,,---,0.00,VWS V14.01,2013-03-21 05:12:00,
2013-03-21 07:18:00,68.2,67.3,29.76,West,270,0.0,0.0,97,0.00,,---,0.00,VWS V14.01,2013-03-21 05:18:00,
2013-03-21 07:20:00,68.4,67.5,29.76,SSW,202,0.0,0.0,97,0.00,,---,0.00,VWS V14.01,2013-03-21 05:20:00,
2013-03-21 07:21:00,68.4,67.2,29.76,WSW,248,0.0,0.0,96,0.00,,---,0.00,VWS V14.01,2013-03-21 05:21:00,
2013-03-21 07:23:00,68.5,67.4,29.76,WNW,292,0.0,0.0,96,0.00,,---,0.00,VWS V14.01,2013-03-21 05:23:00,
2013-03-21 07:24:00,68.5,67.1,29.76,WSW,248,0.0,0.0,95,0.00,,---,0.00,VWS V14.01,2013-03-21 05:24:00,
2013-03-21 07:26:00,68.9,67.1,29.76,WSW,248,0.0,0.0,94,0.00,,---,0.00,VWS V14.01,2013-03-21 05:26:00,
2013-03-21 07:29:00,68.7,66.0,29.76,WSW,248,0.0,0.0,91,0.00,,---,0.00,VWS V14.01,2013-03-21 05:29:00,
2013-03-21 07:30:00,68.7,65.7,29.76,West,270,0.0,0.0,90,0.00,,---,0.00,VWS V14.01,2013-03-21 05:30:00,
2013-03-21 07:34:00,69.1,63.4,29.76,WSW,248,0.0,0.0,82,0.00,,---,0.00,VWS V14.01,2013-03-21 05:34:00,
2013-03-21 07:35:00,69.3,63.5,29.76,West,270,0.0,0.0,82,0.00,,---,0.00,VWS V14.01,2013-03-21 05:35:00,
2013-03-21 07:37:00,69.4,63.7,29.76,WSW,248,0.0,0.0,82,0.00,,---,0.00,VWS V14.01,2013-03-21 05:37:00,
2013-03-21 07:41:00,70.2,64.4,29.76,WSW,248,0.0,0.0,82,0.00,,---,0.00,VWS V14.01,2013-03-21 05:41:00,
2013-03-21 07:42:00,70.2,64.1,29.76,WSW,248,0.0,0.0,81,0.00,,---,0.00,VWS V14.01,2013-03-21 05:42:00,
2013-03-21 07:44:00,70.3,64.2,29.76,WSW,248,0.0,0.0,81,0.00,,---,0.00,VWS V14.01,2013-03-21 05:44:00,
2013-03-21 07:45:00,70.5,64.4,29.76,WSW,248,0.0,0.0,81,0.00,,---,0.00,VWS V14.01,2013-03-21 05:45:00,
2013-03-21 07:47:00,70.5,64.1,29.76,WSW,248,0.0,0.0,80,0.00,,---,0.00,VWS V14.01,2013-03-21 05:47:00,
2013-03-21 07:50:00,70.7,64.2,29.76,SW,225,0.0,0.0,80,0.00,,---,0.00,VWS V14.01,2013-03-21 05:50:00,
2013-03-21 07:56:00,70.9,63.0,29.76,WSW,248,0.0,0.0,76,0.00,,---,0.00,VWS V14.01,2013-03-21 05:56:00,
2013-03-21 07:57:00,70.9,62.6,29.76,WSW,248,0.0,0.0,75,0.00,,---,0.00,VWS V14.01,2013-03-21 05:57:00,
2013-03-21 08:03:00,71.4,61.9,29.76,WSW,248,0.0,0.0,72,0.00,,---,0.00,VWS V14.01,2013-03-21 06:03:00,
2013-03-21 08:05:00,71.4,61.5,29.76,WSW,248,0.0,0.0,71,0.00,,---,0.00,VWS V14.01,2013-03-21 06:05:00,
2013-03-21 08:06:00,71.4,61.1,29.76,WSW,248,0.0,0.0,70,0.00,,---,0.00,VWS V14.01,2013-03-21 06:06:00,
2013-03-21 08:09:00,71.4,60.3,29.76,WSW,248,0.0,0.0,68,0.00,,---,0.00,VWS V14.01,2013-03-21 06:09:00,
2013-03-21 08:12:00,71.6,59.2,29.79,WSW,248,0.0,0.0,65,0.00,,---,0.00,VWS V14.01,2013-03-21 06:12:00,
2013-03-21 08:14:00,71.8,58.5,29.79,WSW,248,0.0,0.0,63,0.00,,---,0.00,VWS V14.01,2013-03-21 06:14:00,
2013-03-21 08:15:00,71.8,57.6,29.79,SSW,202,0.0,0.0,61,0.00,,---,0.00,VWS V14.01,2013-03-21 06:15:00,
2013-03-21 08:19:00,72.1,57.5,29.79,WSW,248,0.0,0.0,60,0.00,,---,0.00,VWS V14.01,2013-03-21 06:19:00,
2013-03-21 08:20:00,72.3,57.2,29.79,WNW,292,0.0,0.0,59,0.00,,---,0.00,VWS V14.01,2013-03-21 06:20:00,
2013-03-21 08:23:00,72.3,56.2,29.79,West,270,0.0,0.0,57,0.00,,---,0.00,VWS V14.01,2013-03-21 06:23:00,
2013-03-21 08:25:00,72.7,56.1,29.79,WSW,248,0.0,0.0,56,0.00,,---,0.00,VWS V14.01,2013-03-21 06:25:00,
2013-03-21 08:26:00,73.0,56.9,29.79,WNW,292,0.0,0.0,57,0.00,,---,0.00,VWS V14.01,2013-03-21 06:26:00,
2013-03-21 08:30:00,73.4,57.3,29.79,WSW,248,0.0,0.0,57,0.00,,---,0.00,VWS V14.01,2013-03-21 06:30:00,
2013-03-21 08:31:00,73.4,57.3,29.79,SW,225,0.0,0.0,57,0.00,,---,0.00,VWS V14.01,2013-03-21 06:31:00,
2013-03-21 08:33:00,73.6,57.9,29.79,WSW,248,0.0,0.0,58,0.00,,---,0.00,VWS V14.01,2013-03-21 06:33:00,
2013-03-21 08:36:00,73.6,57.4,29.79,WSW,248,0.0,0.0,57,0.00,,---,0.00,VWS V14.01,2013-03-21 06:36:00,
2013-03-21 08:37:00,73.6,57.4,29.79,SW,225,0.0,0.9,57,0.00,,---,0.00,VWS V14.01,2013-03-21 06:37:00,
2013-03-21 08:39:00,73.6,57.4,29.79,SW,225,0.0,0.0,57,0.00,,---,0.00,VWS V14.01,2013-03-21 06:39:00,
2013-03-21 08:41:00,73.2,55.6,29.79,SW,225,0.0,0.0,54,0.00,,---,0.00,VWS V14.01,2013-03-21 06:41:00,
2013-03-21 08:44:00,73.0,53.3,29.79,WSW,248,0.0,0.0,50,0.00,,---,0.00,VWS V14.01,2013-03-21 06:44:00,
2013-03-21 08:45:00,73.0,53.3,29.79,WSW,248,0.0,0.0,50,0.00,,---,0.00,VWS V14.01,2013-03-21 06:45:00,
2013-03-21 08:46:00,73.0,53.3,29.79,WSW,248,0.0,0.0,50,0.00,,---,0.00,VWS V14.01,2013-03-21 06:46:00,
2013-03-21 08:47:00,73.0,53.3,29.79,WSW,248,0.0,0.0,50,0.00,,---,0.00,VWS V14.01,2013-03-21 06:47:00,
2013-03-21 08:49:00,73.6,54.9,29.79,WSW,248,0.0,0.0,52,0.00,,---,0.00,VWS V14.01,2013-03-21 06:49:00,
2013-03-21 08:51:00,73.4,50.8,29.79,WSW,248,0.0,0.0,45,0.00,,---,0.00,VWS V14.01,2013-03-21 06:51:00,
2013-03-21 08:52:00,73.4,50.2,29.79,WSW,248,0.0,0.0,44,0.00,,---,0.00,VWS V14.01,2013-03-21 06:52:00,
2013-03-21 08:57:00,73.8,52.3,29.79,WSW,248,0.0,0.0,47,0.00,,---,0.00,VWS V14.01,2013-03-21 06:57:00,
2013-03-21 08:59:00,74.1,54.3,29.79,WSW,248,0.0,0.0,50,0.00,,---,0.00,VWS V14.01,2013-03-21 06:59:00,
2013-03-21 09:00:00,74.1,54.3,29.79,WSW,248,0.0,0.0,50,0.00,,---,0.00,VWS V14.01,2013-03-21 07:00:00,
2013-03-21 09:03:00,74.1,54.3,29.79,WSW,248,0.0,0.0,50,0.00,,---,0.00,VWS V14.01,2013-03-21 07:03:00,
2013-03-21 09:04:00,74.1,53.2,29.79,WSW,248,0.0,0.0,48,0.00,,---,0.00,VWS V14.01,2013-03-21 07:04:00,
2013-03-21 09:08:00,73.9,50.7,29.79,WSW,248,0.0,0.0,44,0.00,,---,0.00,VWS V14.01,2013-03-21 07:08:00,
2013-03-21 09:10:00,74.1,49.6,29.79,WNW,292,0.0,0.0,42,0.00,,---,0.00,VWS V14.01,2013-03-21 07:10:00,
2013-03-21 09:11:00,74.3,49.1,29.79,WSW,248,0.0,0.0,41,0.00,,---,0.00,VWS V14.01,2013-03-21 07:11:00,
2013-03-21 09:13:00,74.7,47.4,29.79,SW,225,0.0,0.0,38,0.00,,---,0.00,VWS V14.01,2013-03-21 07:13:00,
2013-03-21 09:15:00,74.5,45.1,29.79,WSW,248,0.0,0.0,35,0.00,,---,0.00,VWS V14.01,2013-03-21 07:15:00,
2013-03-21 09:17:00,74.8,44.6,29.79,WSW,248,0.0,0.0,34,0.00,,---,0.00,VWS V14.01,2013-03-21 07:17:00,
2013-03-21 09:20:00,74.7,42.0,29.79,WSW,248,0.0,0.0,31,0.00,,---,0.00,VWS V14.01,2013-03-21 07:20:00,
2013-03-21 09:21:00,74.7,42.0,29.79,WSW,248,3.1,5.4,31,0.00,,---,0.00,VWS V14.01,2013-03-21 07:21:00,
2013-03-21 09:25:00,74.8,41.4,29.79,WSW,248,0.0,4.5,30,0.00,,---,0.00,VWS V14.01,2013-03-21 07:25:00,
2013-03-21 09:28:00,75.4,44.3,29.79,SW,225,0.0,0.0,33,0.00,,---,0.00,VWS V14.01,2013-03-21 07:28:00,
2013-03-21 09:29:00,75.2,45.7,29.79,SW,225,0.0,0.0,35,0.00,,---,0.00,VWS V14.01,2013-03-21 07:29:00,
2013-03-21 09:30:00,75.4,48.7,29.79,WSW,248,6.5,6.5,39,0.00,,---,0.00,VWS V14.01,2013-03-21 07:30:00,
2013-03-21 09:31:00,75.2,49.2,29.79,SSW,202,0.0,6.5,40,0.00,,---,0.00,VWS V14.01,2013-03-21 07:31:00,
2013-03-21 09:34:00,74.8,50.9,29.79,WSW,248,0.0,0.0,43,0.00,,---,0.00,VWS V14.01,2013-03-21 07:34:00,
2013-03-21 09:36:00,75.0,51.0,29.79,WSW,248,0.0,0.0,43,0.00,,---,0.00,VWS V14.01,2013-03-21 07:36:00,
2013-03-21 09:38:00,74.8,50.2,29.79,SW,225,0.0,3.6,42,0.00,,---,0.00,VWS V14.01,2013-03-21 07:38:00,
2013-03-21 09:41:00,74.5,51.2,29.79,WSW,248,0.0,0.0,44,0.00,,---,0.00,VWS V14.01,2013-03-21 07:41:00,
2013-03-21 09:44:00,74.5,51.2,29.79,WSW,248,0.0,0.0,44,0.00,,---,0.00,VWS V14.01,2013-03-21 07:44:00,
2013-03-21 09:47:00,74.3,51.0,29.79,SW,225,0.0,2.9,44,0.00,,---,0.00,VWS V14.01,2013-03-21 07:47:00,
2013-03-21 09:49:00,74.5,50.5,29.79,WSW,248,0.0,3.6,43,0.00,,---,0.00,VWS V14.01,2013-03-21 07:49:00,
2013-03-21 09:51:00,74.8,50.9,29.79,WSW,248,2.7,3.1,43,0.00,,---,0.00,VWS V14.01,2013-03-21 07:51:00,
2013-03-21 09:54:00,74.8,50.9,29.79,SSW,202,0.0,2.5,43,0.00,,---,0.00,VWS V14.01,2013-03-21 07:54:00,
2013-03-21 09:58:00,74.8,51.5,29.79,WSW,248,1.1,1.1,44,0.00,,---,0.00,VWS V14.01,2013-03-21 07:58:00,
2013-03-21 09:59:00,75.2,52.4,29.79,WSW,248,3.4,3.4,45,0.00,,---,0.00,VWS V14.01,2013-03-21 07:59:00,
2013-03-21 10:03:00,75.6,52.8,29.79,WSW,248,2.2,2.2,45,0.00,,---,0.00,VWS V14.01,2013-03-21 08:03:00,
2013-03-21 10:05:00,75.6,52.1,29.79,WSW,248,0.0,0.0,44,0.00,,---,0.00,VWS V14.01,2013-03-21 08:05:00,
2013-03-21 10:08:00,75.6,52.1,29.79,WSW,248,0.0,0.0,44,0.00,,---,0.00,VWS V14.01,2013-03-21 08:08:00,
2013-03-21 10:10:00,75.7,51.7,29.79,SW,225,0.0,0.0,43,0.00,,---,0.00,VWS V14.01,2013-03-21 08:10:00,
2013-03-21 10:11:00,75.9,52.5,29.82,WSW,248,0.0,0.0,44,0.00,,---,0.00,VWS V14.01,2013-03-21 08:11:00,
2013-03-21 10:12:00,75.7,51.7,29.82,WSW,248,0.0,0.0,43,0.00,,---,0.00,VWS V14.01,2013-03-21 08:12:00,
2013-03-21 10:13:00,76.1,52.0,29.82,WSW,248,0.0,0.0,43,0.00,,---,0.00,VWS V14.01,2013-03-21 08:13:00,
2013-03-21 10:17:00,75.7,51.0,29.82,WSW,248,0.0,0.0,42,0.00,,---,0.00,VWS V14.01,2013-03-21 08:17:00,
2013-03-21 10:20:00,75.4,52.0,29.82,WNW,292,4.0,4.0,44,0.00,,---,0.00,VWS V14.01,2013-03-21 08:20:00,
2013-03-21 10:23:00,75.2,51.8,29.82,SW,225,2.7,2.7,44,0.00,,---,0.00,VWS V14.01,2013-03-21 08:23:00,
2013-03-21 10:24:00,75.0,52.3,29.82,SW,225,4.3,4.3,45,0.00,,---,0.00,VWS V14.01,2013-03-21 08:24:00,
2013-03-21 10:27:00,74.7,53.1,29.82,SSW,202,0.0,0.0,47,0.00,,---,0.00,VWS V14.01,2013-03-21 08:27:00,
2013-03-21 10:29:00,74.5,53.5,29.82,WSW,248,0.0,0.0,48,0.00,,---,0.00,VWS V14.01,2013-03-21 08:29:00,
2013-03-21 10:30:00,75.0,54.6,29.82,SW,225,0.0,0.0,49,0.00,,---,0.00,VWS V14.01,2013-03-21 08:30:00,
2013-03-21 10:34:00,75.6,55.1,29.82,WSW,248,0.0,0.0,49,0.00,,---,0.00,VWS V14.01,2013-03-21 08:34:00,
2013-03-21 10:35:00,75.4,54.9,29.82,SSW,202,4.3,5.8,49,0.00,,---,0.00,VWS V14.01,2013-03-21 08:35:00,
2013-03-21 10:38:00,75.2,54.8,29.82,SSW,202,4.5,5.6,49,0.00,,---,0.00,VWS V14.01,2013-03-21 08:38:00,
2013-03-21 10:39:00,75.0,55.1,29.82,SW,225,5.6,5.6,50,0.00,,---,0.00,VWS V14.01,2013-03-21 08:39:00,
2013-03-21 10:40:00,75.2,55.3,29.82,SSW,202,3.8,5.6,50,0.00,,---,0.00,VWS V14.01,2013-03-21 08:40:00,
2013-03-21 10:44:00,74.7,55.3,29.82,SSW,202,3.6,5.8,51,0.00,,---,0.00,VWS V14.01,2013-03-21 08:44:00,
2013-03-21 10:45:00,74.5,55.7,29.82,SW,225,6.0,6.0,52,0.00,,---,0.00,VWS V14.01,2013-03-21 08:45:00,
2013-03-21 10:47:00,74.5,55.7,29.82,SSW,202,0.0,2.0,52,0.00,,---,0.00,VWS V14.01,2013-03-21 08:47:00,
2013-03-21 10:50:00,74.3,56.6,29.82,SW,225,4.9,6.0,54,0.00,,---,0.00,VWS V14.01,2013-03-21 08:50:00,
2013-03-21 10:52:00,74.5,57.3,29.82,SW,225,6.3,6.3,55,0.00,,---,0.00,VWS V14.01,2013-03-21 08:52:00,
2013-03-21 10:54:00,74.5,57.3,29.82,SSW,202,0.0,6.9,55,0.00,,---,0.00,VWS V14.01,2013-03-21 08:54:00,
2013-03-21 10:55:00,74.7,57.4,29.82,WSW,248,5.8,6.0,55,0.00,,---,0.00,VWS V14.01,2013-03-21 08:55:00,
2013-03-21 10:57:00,74.3,57.1,29.82,WSW,248,6.5,7.6,55,0.00,,---,0.00,VWS V14.01,2013-03-21 08:57:00,
2013-03-21 10:58:00,74.3,57.6,29.82,SSW,202,4.9,6.5,56,0.00,,---,0.00,VWS V14.01,2013-03-21 08:58:00,
2013-03-21 10:59:00,74.1,57.4,29.82,WSW,248,7.6,7.8,56,0.00,,---,0.00,VWS V14.01,2013-03-21 08:59:00,
2013-03-21 11:04:00,74.8,59.1,29.82,SSW,202,1.6,3.4,58,0.00,,---,0.00,VWS V14.01,2013-03-21 09:04:00,
2013-03-21 11:06:00,74.8,58.1,29.82,SW,225,5.6,5.6,56,0.00,,---,0.00,VWS V14.01,2013-03-21 09:06:00,
2013-03-21 11:08:00,74.7,57.4,29.82,SW,225,0.0,3.8,55,0.00,,---,0.00,VWS V14.01,2013-03-21 09:08:00,
2013-03-21 11:09:00,74.8,58.1,29.82,SW,225,0.0,0.0,56,0.00,,---,0.00,VWS V14.01,2013-03-21 09:09:00,
2013-03-21 11:11:00,74.8,57.6,29.82,SW,225,0.0,0.0,55,0.00,,---,0.00,VWS V14.01,2013-03-21 09:11:00,
2013-03-21 11:13:00,75.2,57.9,29.82,WNW,292,0.0,0.0,55,0.00,,---,0.00,VWS V14.01,2013-03-21 09:13:00,
2013-03-21 11:15:00,75.0,57.8,29.82,SSW,202,0.0,0.0,55,0.00,,---,0.00,VWS V14.01,2013-03-21 09:15:00,
2013-03-21 11:18:00,74.5,57.3,29.82,SSW,202,0.0,0.0,55,0.00,,---,0.00,VWS V14.01,2013-03-21 09:18:00,
2013-03-21 11:19:00,74.1,57.4,29.82,SSW,202,0.0,0.0,56,0.00,,---,0.00,VWS V14.01,2013-03-21 09:19:00,
2013-03-21 11:21:00,74.7,58.9,29.82,WSW,248,0.0,0.0,58,0.00,,---,0.00,VWS V14.01,2013-03-21 09:21:00,
2013-03-21 11:22:00,74.7,57.9,29.82,SSW,202,0.0,0.0,56,0.00,,---,0.00,VWS V14.01,2013-03-21 09:22:00,
2013-03-21 11:25:00,74.5,57.8,29.82,SSW,202,0.0,0.0,56,0.00,,---,0.00,VWS V14.01,2013-03-21 09:25:00,
2013-03-21 11:29:00,75.0,58.8,29.82,WSW,248,0.0,0.0,57,0.00,,---,0.00,VWS V14.01,2013-03-21 09:29:00,
2013-03-21 11:30:00,74.8,58.6,29.82,WSW,248,0.0,0.0,57,0.00,,---,0.00,VWS V14.01,2013-03-21 09:30:00,
2013-03-21 11:31:00,75.2,58.4,29.82,SW,225,0.0,0.0,56,0.00,,---,0.00,VWS V14.01,2013-03-21 09:31:00,
2013-03-21 11:35:00,74.7,58.4,29.82,SSW,202,7.6,7.6,57,0.00,,---,0.00,VWS V14.01,2013-03-21 09:35:00,
2013-03-21 11:36:00,74.7,58.4,29.82,WSW,248,4.3,7.6,57,0.00,,---,0.00,VWS V14.01,2013-03-21 09:36:00,
2013-03-21 11:39:00,75.0,58.3,29.82,SW,225,5.8,5.8,56,0.00,,---,0.00,VWS V14.01,2013-03-21 09:39:00,
2013-03-21 11:40:00,74.7,57.4,29.82,SSW,202,5.4,7.4,55,0.00,,---,0.00,VWS V14.01,2013-03-21 09:40:00,
2013-03-21 11:41:00,74.7,57.9,29.85,SSW,202,7.4,7.4,56,0.00,,---,0.00,VWS V14.01,2013-03-21 09:41:00,
2013-03-21 11:44:00,75.2,58.4,29.85,SW,225,2.0,4.3,56,0.00,,---,0.00,VWS V14.01,2013-03-21 09:44:00,
2013-03-21 11:45:00,75.4,58.6,29.85,WSW,248,0.0,4.3,56,0.00,,---,0.00,VWS V14.01,2013-03-21 09:45:00,
2013-03-21 11:49:00,75.4,58.6,29.85,SSW,202,3.6,6.5,56,0.00,,---,0.00,VWS V14.01,2013-03-21 09:49:00,
2013-03-21 11:51:00,75.4,57.6,29.85,SSW,202,4.0,7.4,54,0.00,,---,0.00,VWS V14.01,2013-03-21 09:51:00,
2013-03-21 11:52:00,75.4,57.6,29.85,SW,225,6.0,6.7,54,0.00,,---,0.00,VWS V14.01,2013-03-21 09:52:00,
2013-03-21 11:53:00,75.4,57.6,29.85,WSW,248,6.3,6.3,54,0.00,,---,0.00,VWS V14.01,2013-03-21 09:53:00,
2013-03-21 11:55:00,75.4,58.1,29.85,WSW,248,1.1,4.5,55,0.00,,---,0.00,VWS V14.01,2013-03-21 09:55:00,
2013-03-21 11:58:00,76.1,58.3,29.85,WSW,248,0.0,3.8,54,0.00,,---,0.00,VWS V14.01,2013-03-21 09:58:00,
2013-03-21 11:59:00,76.1,58.3,29.85,SW,225,1.3,1.3,54,0.00,,---,0.00,VWS V14.01,2013-03-21 09:59:00,
2013-03-21 12:01:00,75.7,56.9,29.85,SW,225,0.0,4.9,52,0.00,,---,0.00,VWS V14.01,2013-03-21 10:01:00,
2013-03-21 12:02:00,75.7,56.9,29.85,SW,225,1.6,3.4,52,0.00,,---,0.00,VWS V14.01,2013-03-21 10:02:00,
2013-03-21 12:06:00,76.1,57.8,29.85,SW,225,4.9,4.9,53,0.00,,---,0.00,VWS V14.01,2013-03-21 10:06:00,
2013-03-21 12:07:00,75.9,57.0,29.85,WSW,248,6.5,6.5,52,0.00,,---,0.00,VWS V14.01,2013-03-21 10:07:00,
2013-03-21 12:11:00,76.1,57.8,29.85,SSW,202,4.9,4.9,53,0.00,,---,0.00,VWS V14.01,2013-03-21 10:11:00,
2013-03-21 12:12:00,76.1,57.8,29.82,SSW,202,0.0,4.9,53,0.00,,---,0.00,VWS V14.01,2013-03-21 10:12:00,
2013-03-21 12:13:00,75.9,57.0,29.82,SSW,202,0.0,5.8,52,0.00,,---,0.00,VWS V14.01,2013-03-21 10:13:00,
2013-03-21 12:14:00,76.1,57.8,29.82,SSW,202,0.0,0.0,53,0.00,,---,0.00,VWS V14.01,2013-03-21 10:14:00,
2013-03-21 12:18:00,76.5,57.5,29.82,SSW,202,0.0,0.0,52,0.00,,---,0.00,VWS V14.01,2013-03-21 10:18:00,
2013-03-21 12:20:00,76.3,56.8,29.82,WSW,248,0.0,0.0,51,0.00,,---,0.00,VWS V14.01,2013-03-21 10:20:00,
2013-03-21 12:22:00,76.3,56.8,29.82,WSW,248,1.6,6.5,51,0.00,,---,0.00,VWS V14.01,2013-03-21 10:22:00,
2013-03-21 12:25:00,76.6,57.7,29.82,SW,225,0.0,4.0,52,0.00,,---,0.00,VWS V14.01,2013-03-21 10:25:00,
2013-03-21 12:26:00,76.8,57.9,29.85,SW,225,0.0,0.0,52,0.00,,---,0.00,VWS V14.01,2013-03-21 10:26:00,
2013-03-21 12:28:00,76.3,56.8,29.85,WSW,248,5.8,6.3,51,0.00,,---,0.00,VWS V14.01,2013-03-21 10:28:00,
2013-03-21 12:32:00,75.7,56.9,29.85,SW,225,0.0,0.0,52,0.00,,---,0.00,VWS V14.01,2013-03-21 10:32:00,
2013-03-21 12:33:00,75.7,57.4,29.85,WSW,248,0.0,0.0,53,0.00,,---,0.00,VWS V14.01,2013-03-21 10:33:00,
2013-03-21 12:34:00,75.7,57.4,29.85,WSW,248,5.6,5.6,53,0.00,,---,0.00,VWS V14.01,2013-03-21 10:34:00,
2013-03-21 12:37:00,75.7,57.4,29.85,SW,225,5.6,5.6,53,0.00,,---,0.00,VWS V14.01,2013-03-21 10:37:00,
2013-03-21 12:41:00,75.9,58.6,29.85,SSW,202,7.2,7.2,55,0.00,,---,0.00,VWS V14.01,2013-03-21 10:41:00,
2013-03-21 12:42:00,75.4,57.6,29.85,SW,225,0.0,7.2,54,0.00,,---,0.00,VWS V14.01,2013-03-21 10:42:00,
2013-03-21 12:43:00,75.4,57.6,29.85,WSW,248,4.9,6.3,54,0.00,,---,0.00,VWS V14.01,2013-03-21 10:43:00,
2013-03-21 12:46:00,76.1,58.8,29.85,SW,225,5.4,5.4,55,0.00,,---,0.00,VWS V14.01,2013-03-21 10:46:00,
2013-03-21 12:48:00,75.7,57.9,29.85,WSW,248,0.0,6.5,54,0.00,,---,0.00,VWS V14.01,2013-03-21 10:48:00,
2013-03-21 12:49:00,75.9,58.6,29.85,SW,225,6.0,6.0,55,0.00,,---,0.00,VWS V14.01,2013-03-21 10:49:00,
2013-03-21 12:51:00,75.4,57.6,29.85,SW,225,5.4,6.5,54,0.00,,---,0.00,VWS V14.01,2013-03-21 10:51:00,
2013-03-21 12:54:00,75.6,59.3,29.85,WSW,248,3.4,5.6,57,0.00,,---,0.00,VWS V14.01,2013-03-21 10:54:00,
2013-03-21 12:55:00,75.6,59.3,29.85,WSW,248,0.0,6.5,57,0.00,,---,0.00,VWS V14.01,2013-03-21 10:55:00,
2013-03-21 12:57:00,75.6,58.8,29.85,WSW,248,2.0,3.1,56,0.00,,---,0.00,VWS V14.01,2013-03-21 10:57:00,
2013-03-21 12:58:00,75.2,57.9,29.85,SW,225,2.5,2.5,55,0.00,,---,0.00,VWS V14.01,2013-03-21 10:58:00,
2013-03-21 12:59:00,75.4,58.6,29.85,SW,225,0.0,2.5,56,0.00,,---,0.00,VWS V14.01,2013-03-21 10:59:00,
2013-03-21 13:01:00,75.0,59.3,29.85,WSW,248,0.0,0.0,58,0.00,,---,0.00,VWS V14.01,2013-03-21 11:01:00,
2013-03-21 13:04:00,75.4,59.6,29.85,SSW,202,0.0,0.0,58,0.00,,---,0.00,VWS V14.01,2013-03-21 11:04:00,
2013-03-21 13:10:00,74.8,59.1,29.85,SSW,202,8.5,8.5,58,0.00,,---,0.00,VWS V14.01,2013-03-21 11:10:00,
2013-03-21 13:11:00,74.5,59.2,29.85,SSW,202,6.5,7.2,59,0.00,,---,0.00,VWS V14.01,2013-03-21 11:11:00,
2013-03-21 13:12:00,74.1,59.4,29.85,SSW,202,6.9,7.6,60,0.00,,---,0.00,VWS V14.01,2013-03-21 11:12:00,
2013-03-21 13:17:00,74.3,60.5,29.85,SSW,202,1.1,4.9,62,0.00,,---,0.00,VWS V14.01,2013-03-21 11:17:00,
2013-03-21 13:18:00,74.5,60.6,29.85,WSW,248,4.9,7.8,62,0.00,,---,0.00,VWS V14.01,2013-03-21 11:18:00,
2013-03-21 13:23:00,74.7,60.3,29.85,WSW,248,3.8,7.4,61,0.00,,---,0.00,VWS V14.01,2013-03-21 11:23:00,
2013-03-21 13:26:00,75.0,59.3,29.85,SSW,202,1.6,6.7,58,0.00,,---,0.00,VWS V14.01,2013-03-21 11:26:00,
2013-03-21 13:27:00,74.8,57.6,29.85,SW,225,0.0,1.6,55,0.00,,---,0.00,VWS V14.01,2013-03-21 11:27:00,
2013-03-21 13:29:00,74.3,56.1,29.85,SW,225,5.6,8.7,53,0.00,,---,0.00,VWS V14.01,2013-03-21 11:29:00,
2013-03-21 13:31:00,74.7,57.4,29.85,SSW,202,4.3,7.8,55,0.00,,---,0.00,VWS V14.01,2013-03-21 11:31:00,
2013-03-21 13:34:00,74.7,57.9,29.85,SW,225,6.5,7.6,56,0.00,,---,0.00,VWS V14.01,2013-03-21 11:34:00,
2013-03-21 13:35:00,74.5,57.3,29.85,SW,225,5.8,7.4,55,0.00,,---,0.00,VWS V14.01,2013-03-21 11:35:00,
2013-03-21 13:40:00,74.5,56.8,29.85,SSW,202,7.6,7.8,54,0.00,,---,0.00,VWS V14.01,2013-03-21 11:40:00,
2013-03-21 13:41:00,74.7,57.4,29.85,SSW,202,1.3,7.6,55,0.00,,---,0.00,VWS V14.01,2013-03-21 11:41:00,
2013-03-21 13:43:00,74.5,56.8,29.85,SSW,202,3.6,9.6,54,0.00,,---,0.00,VWS V14.01,2013-03-21 11:43:00,
2013-03-21 13:47:00,74.1,54.9,29.85,WSW,248,4.3,8.7,51,0.00,,---,0.00,VWS V14.01,2013-03-21 11:47:00,
2013-03-21 13:48:00,74.5,56.2,29.85,WSW,248,3.1,5.6,53,0.00,,---,0.00,VWS V14.01,2013-03-21 11:48:00,
2013-03-21 13:52:00,74.5,55.7,29.85,West,270,1.6,6.5,52,0.00,,---,0.00,VWS V14.01,2013-03-21 11:52:00,
2013-03-21 13:53:00,74.5,55.7,29.85,SSW,202,6.5,6.5,52,0.00,,---,0.00,VWS V14.01,2013-03-21 11:53:00,
2013-03-21 13:56:00,74.7,54.8,29.85,SSW,202,8.1,8.1,50,0.00,,---,0.00,VWS V14.01,2013-03-21 11:56:00,
2013-03-21 13:57:00,74.5,54.1,29.85,WSW,248,7.8,8.1,49,0.00,,---,0.00,VWS V14.01,2013-03-21 11:57:00,
2013-03-21 13:58:00,74.7,54.2,29.85,SW,225,5.8,7.8,49,0.00,,---,0.00,VWS V14.01,2013-03-21 11:58:00,
2013-03-21 14:03:00,75.0,54.6,29.85,SW,225,0.0,7.6,49,0.00,,---,0.00,VWS V14.01,2013-03-21 12:03:00,
2013-03-21 14:05:00,75.2,54.8,29.85,WSW,248,4.9,8.5,49,0.00,,---,0.00,VWS V14.01,2013-03-21 12:05:00,
2013-03-21 14:08:00,74.8,54.4,29.85,WSW,248,6.3,9.0,49,0.00,,---,0.00,VWS V14.01,2013-03-21 12:08:00,
2013-03-21 14:09:00,75.0,55.1,29.85,SW,225,8.5,8.5,50,0.00,,---,0.00,VWS V14.01,2013-03-21 12:09:00,
2013-03-21 14:10:00,75.0,54.6,29.85,WSW,248,3.6,8.5,49,0.00,,---,0.00,VWS V14.01,2013-03-21 12:10:00,
2013-03-21 14:15:00,74.8,53.8,29.85,SSW,202,0.0,0.0,48,0.00,,---,0.00,VWS V14.01,2013-03-21 12:15:00,
2013-03-21 14:17:00,74.8,53.8,29.85,SW,225,0.0,0.0,48,0.00,,---,0.00,VWS V14.01,2013-03-21 12:17:00,
2013-03-21 14:20:00,74.8,53.8,29.85,WSW,248,0.0,0.0,48,0.00,,---,0.00,VWS V14.01,2013-03-21 12:20:00,
2013-03-21 14:21:00,74.8,53.8,29.85,WSW,248,0.0,0.0,48,0.00,,---,0.00,VWS V14.01,2013-03-21 12:21:00,
2013-03-21 14:25:00,74.3,52.8,29.85,SSW,202,0.0,0.0,47,0.00,,---,0.00,VWS V14.01,2013-03-21 12:25:00,
2013-03-21 14:30:00,73.9,53.0,29.85,SW,225,6.0,7.8,48,0.00,,---,0.00,VWS V14.01,2013-03-21 12:30:00,
2013-03-21 14:32:00,74.1,53.8,29.85,WSW,248,6.0,7.8,49,0.00,,---,0.00,VWS V14.01,2013-03-21 12:32:00,
2013-03-21 14:36:00,73.9,54.2,29.85,SSW,202,6.0,6.5,50,0.00,,---,0.00,VWS V14.01,2013-03-21 12:36:00,
2013-03-21 14:38:00,73.9,54.2,29.85,SSW,202,0.0,0.0,50,0.00,,---,0.00,VWS V14.01,2013-03-21 12:38:00,
2013-03-21 14:41:00,74.1,54.3,29.85,SSW,202,6.5,7.4,50,0.00,,---,0.00,VWS V14.01,2013-03-21 12:41:00,
2013-03-21 14:43:00,73.9,54.2,29.85,SSW,202,6.7,6.7,50,0.00,,---,0.00,VWS V14.01,2013-03-21 12:43:00,
2013-03-21 14:48:00,74.1,55.4,29.85,WSW,248,4.7,5.8,52,0.00,,---,0.00,VWS V14.01,2013-03-21 12:48:00,
2013-03-21 14:49:00,74.1,54.9,29.85,SW,225,6.3,6.3,51,0.00,,---,0.00,VWS V14.01,2013-03-21 12:49:00,
2013-03-21 14:52:00,74.1,55.4,29.85,WSW,248,0.0,7.6,52,0.00,,---,0.00,VWS V14.01,2013-03-21 12:52:00,
2013-03-21 14:54:00,73.9,54.7,29.85,SSW,202,6.9,7.8,51,0.00,,---,0.00,VWS V14.01,2013-03-21 12:54:00,
2013-03-21 14:55:00,73.8,54.5,29.85,SSW,202,4.9,7.4,51,0.00,,---,0.00,VWS V14.01,2013-03-21 12:55:00,
2013-03-21 14:56:00,73.9,55.2,29.85,SW,225,3.6,7.2,52,0.00,,---,0.00,VWS V14.01,2013-03-21 12:56:00,
2013-03-21 15:00:00,73.6,55.4,29.85,SW,225,6.5,8.1,53,0.00,,---,0.00,VWS V14.01,2013-03-21 13:00:00,
2013-03-21 15:05:00,73.6,55.9,29.85,SSW,202,0.0,0.0,54,0.00,,---,0.00,VWS V14.01,2013-03-21 13:05:00,
2013-03-21 15:06:00,73.6,56.4,29.85,SW,225,0.0,0.0,55,0.00,,---,0.00,VWS V14.01,2013-03-21 13:06:00,
2013-03-21 15:07:00,73.4,56.3,29.85,SSW,202,0.0,0.0,55,0.00,,---,0.00,VWS V14.01,2013-03-21 13:07:00,
2013-03-21 15:12:00,73.2,57.1,29.85,SSW,202,0.0,0.0,57,0.00,,---,0.00,VWS V14.01,2013-03-21 13:12:00,
2013-03-21 15:13:00,73.4,57.3,29.85,SSW,202,0.0,0.0,57,0.00,,---,0.00,VWS V14.01,2013-03-21 13:13:00,
2013-03-21 15:17:00,73.6,56.9,29.85,SSW,202,0.0,0.0,56,0.00,,---,0.00,VWS V14.01,2013-03-21 13:17:00,
2013-03-21 15:19:00,73.4,56.8,29.85,WSW,248,0.0,0.0,56,0.00,,---,0.00,VWS V14.01,2013-03-21 13:19:00,
2013-03-21 15:22:00,73.2,57.1,29.85,SW,225,0.0,0.0,57,0.00,,---,0.00,VWS V14.01,2013-03-21 13:22:00,
2013-03-21 15:23:00,73.0,56.9,29.85,SSW,202,0.0,0.0,57,0.00,,---,0.00,VWS V14.01,2013-03-21 13:23:00,
2013-03-21 15:24:00,73.2,57.1,29.85,SW,225,0.0,0.0,57,0.00,,---,0.00,VWS V14.01,2013-03-21 13:24:00,
2013-03-21 15:27:00,73.0,56.9,29.85,SSW,202,0.0,0.0,57,0.00,,---,0.00,VWS V14.01,2013-03-21 13:27:00,
2013-03-21 15:29:00,73.4,57.7,29.85,WSW,248,0.0,0.0,58,0.00,,---,0.00,VWS V14.01,2013-03-21 13:29:00,
2013-03-21 15:31:00,73.4,57.3,29.85,SSW,202,0.0,0.0,57,0.00,,---,0.00,VWS V14.01,2013-03-21 13:31:00,
2013-03-21 15:36:00,72.9,56.8,29.85,SSW,202,0.0,0.0,57,0.00,,---,0.00,VWS V14.01,2013-03-21 13:36:00,
2013-03-21 15:37:00,73.0,57.4,29.85,SSW,202,0.0,0.0,58,0.00,,---,0.00,VWS V14.01,2013-03-21 13:37:00,
2013-03-21 15:38:00,73.0,57.4,29.85,SSW,202,0.0,0.0,58,0.00,,---,0.00,VWS V14.01,2013-03-21 13:38:00,
2013-03-21 15:40:00,73.0,57.4,29.85,SSW,202,0.0,0.0,58,0.00,,---,0.00,VWS V14.01,2013-03-21 13:40:00,
2013-03-21 15:43:00,73.0,56.9,29.85,SSW,202,0.0,0.0,57,0.00,,---,0.00,VWS V14.01,2013-03-21 13:43:00,
2013-03-21 15:45:00,73.0,57.4,29.85,SSW,202,0.0,0.0,58,0.00,,---,0.00,VWS V14.01,2013-03-21 13:45:00,
2013-03-21 15:49:00,73.0,57.9,29.85,SSW,202,0.0,0.0,59,0.00,,---,0.00,VWS V14.01,2013-03-21 13:49:00,
2013-03-21 15:50:00,72.9,57.7,29.85,SSW,202,0.0,0.0,59,0.00,,---,0.00,VWS V14.01,2013-03-21 13:50:00,
2013-03-21 15:52:00,72.7,57.5,29.85,SSW,202,0.0,0.0,59,0.00,,---,0.00,VWS V14.01,2013-03-21 13:52:00,
2013-03-21 15:53:00,72.5,57.4,29.85,SSW,202,0.0,0.0,59,0.00,,---,0.00,VWS V14.01,2013-03-21 13:53:00,
2013-03-21 15:55:00,72.5,57.8,29.85,SSW,202,0.0,0.0,60,0.00,,---,0.00,VWS V14.01,2013-03-21 13:55:00,
2013-03-21 15:59:00,72.3,58.1,29.85,SSW,202,0.0,0.0,61,0.00,,---,0.00,VWS V14.01,2013-03-21 13:59:00,
2013-03-21 16:00:00,72.5,58.3,29.85,SSW,202,0.0,0.0,61,0.00,,---,0.00,VWS V14.01,2013-03-21 14:00:00,
2013-03-21 16:02:00,72.3,58.1,29.85,SSW,202,0.0,0.0,61,0.00,,---,0.00,VWS V14.01,2013-03-21 14:02:00,
2013-03-21 16:05:00,72.0,58.2,29.85,SSW,202,0.0,0.0,62,0.00,,---,0.00,VWS V14.01,2013-03-21 14:05:00,
2013-03-21 16:07:00,72.0,58.7,29.85,SSW,202,0.0,0.0,63,0.00,,---,0.00,VWS V14.01,2013-03-21 14:07:00,
2013-03-21 16:10:00,71.6,58.8,29.85,SSW,202,0.0,0.0,64,0.00,,---,0.00,VWS V14.01,2013-03-21 14:10:00,
2013-03-21 16:11:00,71.6,58.8,29.85,SSW,202,0.0,0.0,64,0.00,,---,0.00,VWS V14.01,2013-03-21 14:11:00,
2013-03-21 16:13:00,71.6,58.8,29.85,SW,225,0.0,0.0,64,0.00,,---,0.00,VWS V14.01,2013-03-21 14:13:00,
2013-03-21 16:15:00,72.0,59.6,29.85,SW,225,0.0,0.0,65,0.00,,---,0.00,VWS V14.01,2013-03-21 14:15:00,
2013-03-21 16:18:00,72.0,60.0,29.85,WSW,248,0.0,0.0,66,0.00,,---,0.00,VWS V14.01,2013-03-21 14:18:00,
2013-03-21 16:20:00,71.8,59.8,29.85,SW,225,0.0,0.0,66,0.00,,---,0.00,VWS V14.01,2013-03-21 14:20:00,
2013-03-21 16:21:00,71.6,59.7,29.85,SSW,202,0.0,0.0,66,0.00,,---,0.00,VWS V14.01,2013-03-21 14:21:00,
2013-03-21 16:23:00,71.2,59.7,29.85,SSW,202,0.0,0.0,67,0.00,,---,0.00,VWS V14.01,2013-03-21 14:23:00,
2013-03-21 16:25:00,71.8,60.7,29.85,SSW,202,0.0,0.0,68,0.00,,---,0.00,VWS V14.01,2013-03-21 14:25:00,
2013-03-21 16:27:00,71.8,60.2,29.85,SSW,202,0.0,0.0,67,0.00,,---,0.00,VWS V14.01,2013-03-21 14:27:00,
2013-03-21 16:32:00,72.0,60.0,29.85,SSW,202,0.0,0.0,66,0.00,,---,0.00,VWS V14.01,2013-03-21 14:32:00,
2013-03-21 16:34:00,72.1,59.7,29.85,SSW,202,0.0,0.0,65,0.00,,---,0.00,VWS V14.01,2013-03-21 14:34:00,
2013-03-21 16:36:00,72.1,59.7,29.85,SSW,202,0.0,1.6,65,0.00,,---,0.00,VWS V14.01,2013-03-21 14:36:00,
2013-03-21 16:40:00,72.5,59.6,29.85,SSW,202,0.0,2.2,64,0.00,,---,0.00,VWS V14.01,2013-03-21 14:40:00,
2013-03-21 16:42:00,72.5,60.1,29.85,SSW,202,2.9,2.9,65,0.00,,---,0.00,VWS V14.01,2013-03-21 14:42:00,
2013-03-21 16:46:00,72.3,59.5,29.85,SSW,202,0.0,0.0,64,0.00,,---,0.00,VWS V14.01,2013-03-21 14:46:00,
2013-03-21 16:47:00,72.3,59.5,29.85,SSE,158,0.0,0.0,64,0.00,,---,0.00,VWS V14.01,2013-03-21 14:47:00,
2013-03-21 16:48:00,72.5,59.6,29.85,SSW,202,0.0,0.0,64,0.00,,---,0.00,VWS V14.01,2013-03-21 14:48:00,
2013-03-21 16:49:00,72.3,59.9,29.85,SSW,202,0.0,0.0,65,0.00,,---,0.00,VWS V14.01,2013-03-21 14:49:00,
2013-03-21 16:54:00,72.3,59.9,29.85,SSW,202,0.0,0.0,65,0.00,,---,0.00,VWS V14.01,2013-03-21 14:54:00,
2013-03-21 16:57:00,72.3,59.5,29.85,SSW,202,0.0,0.0,64,0.00,,---,0.00,VWS V14.01,2013-03-21 14:57:00,
2013-03-21 16:59:00,72.3,59.5,29.85,SSW,202,0.0,0.0,64,0.00,,---,0.00,VWS V14.01,2013-03-21 14:59:00,
2013-03-21 17:01:00,72.1,58.9,29.85,SW,225,0.0,0.0,63,0.00,,---,0.00,VWS V14.01,2013-03-21 15:01:00,
2013-03-21 17:02:00,72.1,58.9,29.85,SW,225,0.0,0.0,63,0.00,,---,0.00,VWS V14.01,2013-03-21 15:02:00,
2013-03-21 17:04:00,72.0,59.1,29.85,WSW,248,0.0,0.0,64,0.00,,---,0.00,VWS V14.01,2013-03-21 15:04:00,
2013-03-21 17:07:00,72.0,59.6,29.85,SSW,202,0.0,0.0,65,0.00,,---,0.00,VWS V14.01,2013-03-21 15:07:00,
2013-03-21 17:09:00,72.1,59.7,29.85,SW,225,0.0,0.0,65,0.00,,---,0.00,VWS V14.01,2013-03-21 15:09:00,
2013-03-21 17:11:00,72.1,59.7,29.85,SW,225,0.0,0.0,65,0.00,,---,0.00,VWS V14.01,2013-03-21 15:11:00,
2013-03-21 17:13:00,72.1,59.7,29.85,SSW,202,0.0,0.0,65,0.00,,---,0.00,VWS V14.01,2013-03-21 15:13:00,
2013-03-21 17:15:00,72.1,59.7,29.85,SW,225,0.0,0.0,65,0.00,,---,0.00,VWS V14.01,2013-03-21 15:15:00,
2013-03-21 17:17:00,72.1,59.7,29.85,SW,225,0.0,0.0,65,0.00,,---,0.00,VWS V14.01,2013-03-21 15:17:00,
2013-03-21 17:18:00,72.1,59.7,29.85,SW,225,0.0,0.0,65,0.00,,---,0.00,VWS V14.01,2013-03-21 15:18:00,
2013-03-21 17:22:00,72.1,59.7,29.85,SW,225,0.0,0.0,65,0.00,,---,0.00,VWS V14.01,2013-03-21 15:22:00,
2013-03-21 17:24:00,72.1,59.7,29.85,SSW,202,0.0,0.0,65,0.00,,---,0.00,VWS V14.01,2013-03-21 15:24:00,
2013-03-21 17:27:00,72.0,58.2,29.85,SSW,202,0.0,0.0,62,0.00,,---,0.00,VWS V14.01,2013-03-21 15:27:00,
2013-03-21 17:28:00,72.0,58.2,29.85,SSW,202,0.0,0.0,62,0.00,,---,0.00,VWS V14.01,2013-03-21 15:28:00,
2013-03-21 17:31:00,71.8,58.5,29.85,SSW,202,0.0,0.0,63,0.00,,---,0.00,VWS V14.01,2013-03-21 15:31:00,
2013-03-21 17:32:00,72.0,59.1,29.85,WSW,248,0.0,0.0,64,0.00,,---,0.00,VWS V14.01,2013-03-21 15:32:00,
2013-03-21 17:33:00,72.0,59.1,29.85,South,180,0.0,0.0,64,0.00,,---,0.00,VWS V14.01,2013-03-21 15:33:00,
2013-03-21 17:35:00,71.8,58.5,29.85,SSW,202,0.0,0.0,63,0.00,,---,0.00,VWS V14.01,2013-03-21 15:35:00,
2013-03-21 17:37:00,72.0,58.2,29.85,SW,225,0.0,0.0,62,0.00,,---,0.00,VWS V14.01,2013-03-21 15:37:00,
2013-03-21 17:39:00,71.8,57.6,29.85,SSW,202,0.0,0.0,61,0.00,,---,0.00,VWS V14.01,2013-03-21 15:39:00,
2013-03-21 17:42:00,71.8,57.6,29.85,SW,225,0.0,0.0,61,0.00,,---,0.00,VWS V14.01,2013-03-21 15:42:00,
2013-03-21 17:45:00,71.6,57.5,29.85,SSW,202,0.0,0.0,61,0.00,,---,0.00,VWS V14.01,2013-03-21 15:45:00,
2013-03-21 17:46:00,71.6,57.0,29.85,SSW,202,0.0,0.0,60,0.00,,---,0.00,VWS V14.01,2013-03-21 15:46:00,
2013-03-21 17:51:00,71.6,57.5,29.85,SSW,202,0.0,0.0,61,0.00,,---,0.00,VWS V14.01,2013-03-21 15:51:00,
2013-03-21 17:52:00,71.6,57.5,29.85,SSW,202,0.0,0.0,61,0.00,,---,0.00,VWS V14.01,2013-03-21 15:52:00,
2013-03-21 17:53:00,70.9,56.8,29.85,SSW,202,0.0,0.0,61,0.00,,---,0.00,VWS V14.01,2013-03-21 15:53:00,
2013-03-21 17:54:00,70.7,56.6,29.85,SSW,202,0.0,0.0,61,0.00,,---,0.00,VWS V14.01,2013-03-21 15:54:00,
2013-03-21 17:58:00,70.0,56.8,29.85,SSW,202,0.0,0.0,63,0.00,,---,0.00,VWS V14.01,2013-03-21 15:58:00,
2013-03-21 17:59:00,69.8,57.1,29.85,SSW,202,0.0,0.0,64,0.00,,---,0.00,VWS V14.01,2013-03-21 15:59:00,
2013-03-21 18:01:00,69.4,58.0,29.85,SW,225,0.0,0.0,67,0.00,,---,0.00,VWS V14.01,2013-03-21 16:01:00,
2013-03-21 18:03:00,69.3,58.3,29.85,SSW,202,0.0,0.0,68,0.00,,---,0.00,VWS V14.01,2013-03-21 16:03:00,
2013-03-21 18:04:00,69.1,58.5,29.85,SSW,202,0.0,0.0,69,0.00,,---,0.00,VWS V14.01,2013-03-21 16:04:00,
2013-03-21 18:05:00,69.1,58.5,29.85,SSW,202,0.0,0.0,69,0.00,,---,0.00,VWS V14.01,2013-03-21 16:05:00,
2013-03-21 18:09:00,68.7,59.7,29.85,SW,225,0.0,0.0,73,0.00,,---,0.00,VWS V14.01,2013-03-21 16:09:00,
2013-03-21 18:10:00,68.5,59.5,29.85,SSW,202,0.0,0.0,73,0.00,,---,0.00,VWS V14.01,2013-03-21 16:10:00,
2013-03-21 18:15:00,68.4,60.9,29.88,SSW,202,0.0,0.0,77,0.00,,---,0.00,VWS V14.01,2013-03-21 16:15:00,
2013-03-21 18:16:00,68.4,61.2,29.88,SSW,202,0.0,0.0,78,0.00,,---,0.00,VWS V14.01,2013-03-21 16:16:00,
2013-03-21 18:17:00,68.4,61.2,29.88,SSW,202,0.0,0.0,78,0.00,,---,0.00,VWS V14.01,2013-03-21 16:17:00,
2013-03-21 18:22:00,68.0,61.6,29.88,SW,225,0.0,0.0,80,0.00,,---,0.00,VWS V14.01,2013-03-21 16:22:00,
2013-03-21 18:24:00,68.0,62.0,29.88,SSW,202,0.0,0.0,81,0.00,,---,0.00,VWS V14.01,2013-03-21 16:24:00,
2013-03-21 18:25:00,67.8,62.1,29.88,SSW,202,0.0,0.0,82,0.00,,---,0.00,VWS V14.01,2013-03-21 16:25:00,
2013-03-21 18:26:00,67.8,62.1,29.85,SW,225,0.0,0.0,82,0.00,,---,0.00,VWS V14.01,2013-03-21 16:26:00,
2013-03-21 18:29:00,67.6,62.0,29.85,SSW,202,0.0,0.0,82,0.00,,---,0.00,VWS V14.01,2013-03-21 16:29:00,
2013-03-21 18:32:00,67.5,61.8,29.85,SSW,202,0.0,0.0,82,0.00,,---,0.00,VWS V14.01,2013-03-21 16:32:00,
2013-03-21 18:33:00,67.5,61.8,29.85,SSW,202,0.0,0.0,82,0.00,,---,0.00,VWS V14.01,2013-03-21 16:33:00,
2013-03-21 18:37:00,67.3,62.0,29.85,SW,225,0.0,0.0,83,0.00,,---,0.00,VWS V14.01,2013-03-21 16:37:00,
2013-03-21 18:39:00,67.3,62.6,29.85,SSW,202,0.0,0.0,85,0.00,,---,0.00,VWS V14.01,2013-03-21 16:39:00,
2013-03-21 18:40:00,67.3,63.0,29.85,SSW,202,0.0,0.0,86,0.00,,---,0.00,VWS V14.01,2013-03-21 16:40:00,
2013-03-21 18:42:00,67.1,63.1,29.88,SSW,202,0.0,0.0,87,0.00,,---,0.00,VWS V14.01,2013-03-21 16:42:00,
2013-03-21 18:45:00,67.1,63.4,29.88,SSW,202,0.0,0.0,88,0.00,,---,0.00,VWS V14.01,2013-03-21 16:45:00,
2013-03-21 18:47:00,66.9,63.3,29.88,SSW,202,0.0,0.0,88,0.00,,---,0.00,VWS V14.01,2013-03-21 16:47:00,
2013-03-21 18:51:00,66.7,62.8,29.88,SSW,202,0.0,0.0,87,0.00,,---,0.00,VWS V14.01,2013-03-21 16:51:00,
2013-03-21 18:52:00,66.7,62.4,29.88,SSW,202,0.0,0.0,86,0.00,,---,0.00,VWS V14.01,2013-03-21 16:52:00,
2013-03-21 18:53:00,66.7,62.4,29.88,SSW,202,0.0,0.0,86,0.00,,---,0.00,VWS V14.01,2013-03-21 16:53:00,
2013-03-21 18:54:00,66.7,62.4,29.88,SSW,202,0.0,0.0,86,0.00,,---,0.00,VWS V14.01,2013-03-21 16:54:00,
2013-03-21 18:58:00,66.7,62.4,29.88,SSW,202,0.0,0.0,86,0.00,,---,0.00,VWS V14.01,2013-03-21 16:58:00,
2013-03-21 19:01:00,66.7,62.4,29.88,SSW,202,0.0,0.0,86,0.00,,---,0.00,VWS V14.01,2013-03-21 17:01:00,
2013-03-21 19:03:00,66.7,62.4,29.88,SSW,202,0.0,0.0,86,0.00,,---,0.00,VWS V14.01,2013-03-21 17:03:00,
2013-03-21 19:06:00,66.6,61.9,29.88,SSW,202,0.0,0.0,85,0.00,,---,0.00,VWS V14.01,2013-03-21 17:06:00,
2013-03-21 19:07:00,66.6,61.9,29.88,SSW,202,0.0,0.0,85,0.00,,---,0.00,VWS V14.01,2013-03-21 17:07:00,
2013-03-21 19:10:00,66.6,61.9,29.88,SSW,202,0.0,0.0,85,0.00,,---,0.00,VWS V14.01,2013-03-21 17:10:00,
2013-03-21 19:15:00,66.6,61.9,29.88,SSW,202,0.0,0.0,85,0.00,,---,0.00,VWS V14.01,2013-03-21 17:15:00,
2013-03-21 19:16:00,66.6,61.9,29.88,SSW,202,0.0,0.0,85,0.00,,---,0.00,VWS V14.01,2013-03-21 17:16:00,
2013-03-21 19:19:00,66.4,61.7,29.88,SSW,202,0.0,0.0,85,0.00,,---,0.00,VWS V14.01,2013-03-21 17:19:00,
2013-03-21 19:22:00,66.4,61.7,29.88,SSW,202,0.0,0.0,85,0.00,,---,0.00,VWS V14.01,2013-03-21 17:22:00,
2013-03-21 19:26:00,66.4,61.7,29.85,SSW,202,0.0,0.0,85,0.00,,---,0.00,VWS V14.01,2013-03-21 17:26:00,
2013-03-21 19:27:00,66.4,61.7,29.85,SSW,202,0.0,0.0,85,0.00,,---,0.00,VWS V14.01,2013-03-21 17:27:00,
2013-03-21 19:28:00,66.4,61.7,29.85,SSW,202,0.0,0.0,85,0.00,,---,0.00,VWS V14.01,2013-03-21 17:28:00,
2013-03-21 19:30:00,66.4,61.7,29.85,SSW,202,0.0,0.0,85,0.00,,---,0.00,VWS V14.01,2013-03-21 17:30:00,
2013-03-21 19:34:00,66.2,61.6,29.85,SSW,202,0.0,0.0,85,0.00,,---,0.00,VWS V14.01,2013-03-21 17:34:00,
2013-03-21 19:36:00,66.2,61.6,29.85,SSW,202,0.0,0.0,85,0.00,,---,0.00,VWS V14.01,2013-03-21 17:36:00,
2013-03-21 19:40:00,66.2,61.6,29.85,SSW,202,0.0,0.0,85,0.00,,---,0.00,VWS V14.01,2013-03-21 17:40:00,
2013-03-21 19:41:00,66.0,61.4,29.88,SSW,202,0.0,0.0,85,0.00,,---,0.00,VWS V14.01,2013-03-21 17:41:00,
2013-03-21 19:42:00,66.0,61.4,29.88,SSW,202,0.0,0.0,85,0.00,,---,0.00,VWS V14.01,2013-03-21 17:42:00,
2013-03-21 19:47:00,66.0,61.7,29.88,SSW,202,0.0,0.0,86,0.00,,---,0.00,VWS V14.01,2013-03-21 17:47:00,
2013-03-21 19:49:00,66.0,61.7,29.88,SSW,202,0.0,0.0,86,0.00,,---,0.00,VWS V14.01,2013-03-21 17:49:00,
2013-03-21 19:50:00,66.0,61.7,29.88,SSW,202,0.0,0.0,86,0.00,,---,0.00,VWS V14.01,2013-03-21 17:50:00,
2013-03-21 19:53:00,66.0,61.7,29.88,SSW,202,0.0,0.0,86,0.00,,---,0.00,VWS V14.01,2013-03-21 17:53:00,
2013-03-21 19:54:00,65.8,61.2,29.88,SSW,202,0.0,0.0,85,0.00,,---,0.00,VWS V14.01,2013-03-21 17:54:00,
2013-03-21 19:58:00,65.8,61.2,29.88,SSW,202,0.0,0.0,85,0.00,,---,0.00,VWS V14.01,2013-03-21 17:58:00,
2013-03-21 19:59:00,65.7,61.4,29.88,SSW,202,0.0,0.0,86,0.00,,---,0.00,VWS V14.01,2013-03-21 17:59:00,
2013-03-21 20:00:00,65.7,61.4,29.88,SSW,202,0.0,0.0,86,0.00,,---,0.00,VWS V14.01,2013-03-21 18:00:00,
2013-03-21 20:04:00,65.8,61.5,29.88,SSW,202,0.0,0.0,86,0.00,,---,0.00,VWS V14.01,2013-03-21 18:04:00,
2013-03-21 20:05:00,65.8,61.5,29.88,SSW,202,0.0,0.0,86,0.00,,---,0.00,VWS V14.01,2013-03-21 18:05:00,
2013-03-21 20:06:00,65.7,61.4,29.88,SSW,202,0.0,0.0,86,0.00,,---,0.00,VWS V14.01,2013-03-21 18:06:00,
2013-03-21 20:09:00,65.7,61.4,29.88,SSW,202,0.0,0.0,86,0.00,,---,0.00,VWS V14.01,2013-03-21 18:09:00,
2013-03-21 20:11:00,65.7,61.4,29.88,SSW,202,0.0,0.0,86,0.00,,---,0.00,VWS V14.01,2013-03-21 18:11:00,
2013-03-21 20:12:00,65.7,61.4,29.88,SSW,202,0.0,0.0,86,0.00,,---,0.00,VWS V14.01,2013-03-21 18:12:00,
2013-03-21 20:14:00,65.5,61.2,29.88,SSW,202,0.0,0.0,86,0.00,,---,0.00,VWS V14.01,2013-03-21 18:14:00,
2013-03-21 20:15:00,65.5,61.2,29.88,SSW,202,0.0,0.0,86,0.00,,---,0.00,VWS V14.01,2013-03-21 18:15:00,
2013-03-21 20:19:00,65.5,61.2,29.88,SSW,202,0.0,0.0,86,0.00,,---,0.00,VWS V14.01,2013-03-21 18:19:00,
2013-03-21 20:20:00,65.5,61.2,29.88,SSW,202,0.0,0.0,86,0.00,,---,0.00,VWS V14.01,2013-03-21 18:20:00,
2013-03-21 20:22:00,65.5,61.5,29.88,SSW,202,0.0,0.0,87,0.00,,---,0.00,VWS V14.01,2013-03-21 18:22:00,
2013-03-21 20:25:00,65.5,61.5,29.88,SSW,202,0.0,0.0,87,0.00,,---,0.00,VWS V14.01,2013-03-21 18:25:00,
2013-03-21 20:27:00,65.5,61.5,29.88,SSW,202,0.0,0.0,87,0.00,,---,0.00,VWS V14.01,2013-03-21 18:27:00,
2013-03-21 20:28:00,65.5,61.5,29.88,SSW,202,0.0,0.0,87,0.00,,---,0.00,VWS V14.01,2013-03-21 18:28:00,
2013-03-21 20:32:00,65.5,61.5,29.88,SSW,202,0.0,0.0,87,0.00,,---,0.00,VWS V14.01,2013-03-21 18:32:00,
2013-03-21 20:33:00,65.5,61.5,29.88,SSW,202,0.0,0.0,87,0.00,,---,0.00,VWS V14.01,2013-03-21 18:33:00,
2013-03-21 20:37:00,65.3,61.3,29.88,SSW,202,0.0,0.0,87,0.00,,---,0.00,VWS V14.01,2013-03-21 18:37:00,
2013-03-21 20:39:00,65.3,61.0,29.88,SSW,202,0.0,0.0,86,0.00,,---,0.00,VWS V14.01,2013-03-21 18:39:00,
2013-03-21 20:40:00,65.1,60.8,29.88,SSW,202,0.0,0.0,86,0.00,,---,0.00,VWS V14.01,2013-03-21 18:40:00,
2013-03-21 20:43:00,64.9,60.7,29.88,SSW,202,0.0,0.0,86,0.00,,---,0.00,VWS V14.01,2013-03-21 18:43:00,
2013-03-21 20:44:00,64.9,60.7,29.88,SSW,202,0.0,0.0,86,0.00,,---,0.00,VWS V14.01,2013-03-21 18:44:00,
2013-03-21 20:46:00,65.1,61.2,29.88,SSW,202,0.0,0.0,87,0.00,,---,0.00,VWS V14.01,2013-03-21 18:46:00,
2013-03-21 20:49:00,65.1,61.2,29.88,SSW,202,0.0,0.0,87,0.00,,---,0.00,VWS V14.01,2013-03-21 18:49:00,
2013-03-21 20:52:00,65.1,61.5,29.88,SSW,202,0.0,0.0,88,0.00,,---,0.00,VWS V14.01,2013-03-21 18:52:00,
2013-03-21 20:53:00,65.1,61.5,29.88,SSW,202,0.0,0.0,88,0.00,,---,0.00,VWS V14.01,2013-03-21 18:53:00,
2013-03-21 20:54:00,65.3,61.7,29.88,SSW,202,0.0,0.0,88,0.00,,---,0.00,VWS V14.01,2013-03-21 18:54:00,
2013-03-21 21:00:00,65.3,61.7,29.88,SSW,202,0.0,0.0,88,0.00,,---,0.00,VWS V14.01,2013-03-21 19:00:00,
2013-03-21 21:02:00,65.3,61.7,29.88,SSW,202,0.0,0.0,88,0.00,,---,0.00,VWS V14.01,2013-03-21 19:02:00,
2013-03-21 21:07:00,65.3,61.7,29.88,SSW,202,0.0,0.0,88,0.00,,---,0.00,VWS V14.01,2013-03-21 19:07:00,
2013-03-21 21:10:00,65.3,61.7,29.88,SSW,202,0.0,0.0,88,0.00,,---,0.00,VWS V14.01,2013-03-21 19:10:00,
2013-03-21 21:15:00,65.3,61.7,29.88,SSW,202,0.0,0.0,88,0.00,,---,0.00,VWS V14.01,2013-03-21 19:15:00,
2013-03-21 21:16:00,65.3,62.0,29.88,SSW,202,0.0,0.0,89,0.00,,---,0.00,VWS V14.01,2013-03-21 19:16:00,
2013-03-21 21:18:00,65.5,62.2,29.88,SSW,202,0.0,0.0,89,0.00,,---,0.00,VWS V14.01,2013-03-21 19:18:00,
2013-03-21 21:22:00,65.5,62.2,29.88,SSW,202,0.0,0.0,89,0.00,,---,0.00,VWS V14.01,2013-03-21 19:22:00,
2013-03-21 21:23:00,65.5,62.2,29.88,SSW,202,0.0,0.0,89,0.00,,---,0.00,VWS V14.01,2013-03-21 19:23:00,
2013-03-21 21:26:00,65.5,62.2,29.88,SSW,202,0.0,0.0,89,0.00,,---,0.00,VWS V14.01,2013-03-21 19:26:00,
2013-03-21 21:28:00,65.5,62.2,29.88,SSW,202,0.0,0.0,89,0.00,,---,0.00,VWS V14.01,2013-03-21 19:28:00,
2013-03-21 21:32:00,65.5,62.2,29.88,SSW,202,0.0,0.0,89,0.00,,---,0.00,VWS V14.01,2013-03-21 19:32:00,
2013-03-21 21:33:00,65.5,62.2,29.88,SSW,202,0.0,0.0,89,0.00,,---,0.00,VWS V14.01,2013-03-21 19:33:00,
2013-03-21 21:36:00,65.7,62.7,29.88,WSW,248,0.0,0.0,90,0.00,,---,0.00,VWS V14.01,2013-03-21 19:36:00,
2013-03-21 21:38:00,65.7,62.7,29.88,WSW,248,0.0,0.0,90,0.00,,---,0.00,VWS V14.01,2013-03-21 19:38:00,
2013-03-21 21:39:00,65.7,62.7,29.88,WSW,248,0.0,0.0,90,0.00,,---,0.00,VWS V14.01,2013-03-21 19:39:00,
2013-03-21 21:41:00,65.7,62.7,29.88,WSW,248,0.0,0.0,90,0.00,,---,0.00,VWS V14.01,2013-03-21 19:41:00,
2013-03-21 21:43:00,65.7,62.7,29.88,WSW,248,0.0,0.0,90,0.00,,---,0.00,VWS V14.01,2013-03-21 19:43:00,
2013-03-21 21:44:00,65.7,63.0,29.88,WSW,248,0.0,0.0,91,0.00,,---,0.00,VWS V14.01,2013-03-21 19:44:00,
2013-03-21 21:46:00,65.7,63.0,29.88,WSW,248,0.0,0.0,91,0.00,,---,0.00,VWS V14.01,2013-03-21 19:46:00,
2013-03-21 21:49:00,65.8,63.1,29.88,WSW,248,0.0,0.0,91,0.00,,---,0.00,VWS V14.01,2013-03-21 19:49:00,
2013-03-21 21:50:00,65.8,63.1,29.88,WSW,248,0.0,0.0,91,0.00,,---,0.00,VWS V14.01,2013-03-21 19:50:00,
2013-03-21 21:51:00,66.0,63.3,29.88,WSW,248,0.0,0.0,91,0.00,,---,0.00,VWS V14.01,2013-03-21 19:51:00,
2013-03-21 21:52:00,66.0,63.6,29.88,WSW,248,0.0,0.0,92,0.00,,---,0.00,VWS V14.01,2013-03-21 19:52:00,
2013-03-21 21:56:00,66.2,63.8,29.88,WSW,248,0.0,0.0,92,0.00,,---,0.00,VWS V14.01,2013-03-21 19:56:00,
2013-03-21 21:59:00,66.2,63.8,29.88,WSW,248,0.0,0.0,92,0.00,,---,0.00,VWS V14.01,2013-03-21 19:59:00,
2013-03-21 22:01:00,66.2,63.5,29.88,WSW,248,0.0,0.0,91,0.00,,---,0.00,VWS V14.01,2013-03-21 20:01:00,
2013-03-21 22:03:00,66.0,63.6,29.88,WSW,248,0.0,0.0,92,0.00,,---,0.00,VWS V14.01,2013-03-21 20:03:00,
2013-03-21 22:04:00,66.0,63.6,29.88,WSW,248,0.0,0.0,92,0.00,,---,0.00,VWS V14.01,2013-03-21 20:04:00,
2013-03-21 22:06:00,66.2,63.5,29.88,SSE,158,0.0,0.0,91,0.00,,---,0.00,VWS V14.01,2013-03-21 20:06:00,
2013-03-21 22:08:00,66.2,63.5,29.88,SSE,158,0.0,0.0,91,0.00,,---,0.00,VWS V14.01,2013-03-21 20:08:00,
2013-03-21 22:11:00,66.2,63.8,29.85,SSE,158,0.0,0.0,92,0.00,,---,0.00,VWS V14.01,2013-03-21 20:11:00,
2013-03-21 22:12:00,66.2,63.8,29.85,SSE,158,0.0,0.0,92,0.00,,---,0.00,VWS V14.01,2013-03-21 20:12:00,
2013-03-21 22:13:00,66.2,63.8,29.85,SSE,158,0.0,0.0,92,0.00,,---,0.00,VWS V14.01,2013-03-21 20:13:00,
2013-03-21 22:19:00,66.2,63.8,29.85,ENE,68,0.0,0.0,92,0.00,,---,0.00,VWS V14.01,2013-03-21 20:19:00,
2013-03-21 22:20:00,66.2,63.8,29.85,ENE,68,0.0,0.0,92,0.00,,---,0.00,VWS V14.01,2013-03-21 20:20:00,
2013-03-21 22:21:00,66.2,63.8,29.85,ENE,68,0.0,0.0,92,0.00,,---,0.00,VWS V14.01,2013-03-21 20:21:00,
2013-03-21 22:26:00,66.4,64.3,29.88,North,0,0.0,0.0,93,0.00,,---,0.00,VWS V14.01,2013-03-21 20:26:00,
2013-03-21 22:27:00,66.4,64.3,29.88,NNW,338,0.0,0.0,93,0.00,,---,0.00,VWS V14.01,2013-03-21 20:27:00,
2013-03-21 22:28:00,66.4,64.3,29.88,NNW,338,0.0,0.0,93,0.00,,---,0.00,VWS V14.01,2013-03-21 20:28:00,
2013-03-21 22:29:00,66.4,64.3,29.88,NNW,338,0.0,0.0,93,0.00,,---,0.00,VWS V14.01,2013-03-21 20:29:00,
2013-03-21 22:33:00,66.6,64.8,29.88,NNW,338,0.0,0.0,94,0.00,,---,0.00,VWS V14.01,2013-03-21 20:33:00,
2013-03-21 22:34:00,66.6,64.8,29.88,NNW,338,0.0,0.0,94,0.00,,---,0.00,VWS V14.01,2013-03-21 20:34:00,
2013-03-21 22:37:00,66.6,64.8,29.88,NNW,338,0.0,0.0,94,0.00,,---,0.00,VWS V14.01,2013-03-21 20:37:00,
2013-03-21 22:38:00,66.6,64.8,29.88,NNW,338,0.0,0.0,94,0.00,,---,0.00,VWS V14.01,2013-03-21 20:38:00,
2013-03-21 22:44:00,66.2,64.4,29.85,NNW,338,0.0,0.0,94,0.00,,---,0.00,VWS V14.01,2013-03-21 20:44:00,
2013-03-21 22:45:00,66.2,64.4,29.85,NNW,338,0.0,0.0,94,0.00,,---,0.00,VWS V14.01,2013-03-21 20:45:00,
2013-03-21 22:49:00,66.2,64.4,29.85,NNW,338,0.0,0.0,94,0.00,,---,0.00,VWS V14.01,2013-03-21 20:49:00,
2013-03-21 22:52:00,66.2,64.4,29.85,NNW,338,0.0,0.0,94,0.00,,---,0.00,VWS V14.01,2013-03-21 20:52:00,
2013-03-21 22:56:00,66.2,64.4,29.85,NNW,338,0.0,0.0,94,0.00,,---,0.00,VWS V14.01,2013-03-21 20:56:00,
2013-03-21 22:57:00,66.2,64.4,29.85,NNW,338,0.0,0.0,94,0.00,,---,0.00,VWS V14.01,2013-03-21 20:57:00,
2013-03-21 22:58:00,66.2,64.4,29.85,NNW,338,0.0,0.0,94,0.00,,---,0.00,VWS V14.01,2013-03-21 20:58:00,
2013-03-21 23:02:00,66.2,64.4,29.85,NNW,338,0.0,0.0,94,0.00,,---,0.00,VWS V14.01,2013-03-21 21:02:00,
2013-03-21 23:04:00,65.7,63.6,29.85,NNW,338,0.0,0.0,93,0.00,,---,0.00,VWS V14.01,2013-03-21 21:04:00,
2013-03-21 23:05:00,65.7,63.6,29.85,NNW,338,0.0,0.0,93,0.00,,---,0.00,VWS V14.01,2013-03-21 21:05:00,
2013-03-21 23:10:00,65.5,63.4,29.85,NNW,338,0.0,0.0,93,0.00,,---,0.00,VWS V14.01,2013-03-21 21:10:00,
2013-03-21 23:14:00,65.7,63.9,29.85,NNW,338,0.0,0.0,94,0.00,,---,0.00,VWS V14.01,2013-03-21 21:14:00,
2013-03-21 23:15:00,65.7,63.9,29.85,NNW,338,0.0,0.0,94,0.00,,---,0.00,VWS V14.01,2013-03-21 21:15:00,
2013-03-21 23:20:00,65.8,64.1,29.85,NE,45,0.0,0.0,94,0.00,,---,0.00,VWS V14.01,2013-03-21 21:20:00,
2013-03-21 23:21:00,65.8,64.1,29.85,NE,45,0.0,0.0,94,0.00,,---,0.00,VWS V14.01,2013-03-21 21:21:00,
2013-03-21 23:22:00,65.8,64.1,29.85,NNE,22,0.0,0.0,94,0.00,,---,0.00,VWS V14.01,2013-03-21 21:22:00,
2013-03-21 23:23:00,65.8,64.1,29.85,NNE,22,0.0,0.0,94,0.00,,---,0.00,VWS V14.01,2013-03-21 21:23:00,
2013-03-21 23:25:00,65.7,63.9,29.85,NNE,22,0.0,0.0,94,0.00,,---,0.00,VWS V14.01,2013-03-21 21:25:00,
2013-03-21 23:26:00,65.7,63.9,29.85,NNE,22,0.0,0.0,94,0.00,,---,0.00,VWS V14.01,2013-03-21 21:26:00,
2013-03-21 23:28:00,65.7,63.9,29.85,NNE,22,0.0,0.0,94,0.00,,---,0.00,VWS V14.01,2013-03-21 21:28:00,
2013-03-21 23:31:00,65.7,63.9,29.85,NNE,22,0.0,0.0,94,0.00,,---,0.00,VWS V14.01,2013-03-21 21:31:00,
2013-03-21 23:34:00,65.5,63.7,29.85,NNE,22,0.0,0.0,94,0.00,,---,0.00,VWS V14.01,2013-03-21 21:34:00,
2013-03-21 23:36:00,65.5,63.7,29.85,NNE,22,0.0,0.0,94,0.00,,---,0.00,VWS V14.01,2013-03-21 21:36:00,
2013-03-21 23:38:00,65.5,63.7,29.85,NNE,22,0.0,0.0,94,0.00,,---,0.00,VWS V14.01,2013-03-21 21:38:00,
2013-03-21 23:41:00,65.3,63.5,29.85,NNE,22,0.0,0.0,94,0.00,,---,0.00,VWS V14.01,2013-03-21 21:41:00,
2013-03-21 23:43:00,65.3,63.5,29.85,NNE,22,0.0,0.0,94,0.00,,---,0.00,VWS V14.01,2013-03-21 21:43:00,
2013-03-21 23:44:00,65.3,63.5,29.85,NNE,22,0.0,0.0,94,0.00,,---,0.00,VWS V14.01,2013-03-21 21:44:00,
2013-03-21 23:46:00,65.3,63.5,29.85,NNE,22,0.0,0.0,94,0.00,,---,0.00,VWS V14.01,2013-03-21 21:46:00,
2013-03-21 23:48:00,65.1,63.3,29.85,NNE,22,0.0,0.0,94,0.00,,---,0.00,VWS V14.01,2013-03-21 21:48:00,
2013-03-21 23:52:00,65.3,63.5,29.85,NNE,22,0.0,0.0,94,0.00,,---,0.00,VWS V14.01,2013-03-21 21:52:00,
2013-03-21 23:53:00,65.5,63.7,29.85,NNE,22,0.0,0.0,94,0.00,,---,0.00,VWS V14.01,2013-03-21 21:53:00,
2013-03-21 23:54:00,65.5,63.7,29.85,NNE,22,0.0,0.0,94,0.00,,---,0.00,VWS V14.01,2013-03-21 21:54:00,
2013-03-21 23:58:00,65.5,63.7,29.82,NNE,22,0.0,0.0,94,0.00,,---,0.00,VWS V14.01,2013-03-21 21:58:00,
2013-03-21 23:59:00,65.5,63.7,29.82,NNE,22,0.0,0.0,94,0.00,,---,0.00,VWS V14.01,2013-03-21 21:59:00,